gpsd-dev
[Top][All Lists]
Advanced

[Date Prev][Date Next][Thread Prev][Thread Next][Date Index][Thread Index]

✘ Add NEO-M9N NMEA logfile.


From: Gary E. Miller
Subject: ✘ Add NEO-M9N NMEA logfile.
Date: Mon, 13 Jul 2020 16:14:02 -0700

Yo Fred!

Your recent commit message:

    2cb46914 by Fred Wright at 2020-07-13T14:32:42-07:00
    Add NEO-M9N NMEA logfile.

    This is intended primarily as a sample of xxGSV sentences with four
    simultaneous GNSSes.  This is currently handled poorly, and the
    included .chk file reflects that.  The latter will need to be updated
    once the code is fixed.

Looking at the chk file for all of 5 seconds and looks good to me.

What do you see wrong?

I must admit I never run a u-blox in NMEA mode.

RGDS
GARY
---------------------------------------------------------------------------
Gary E. Miller Rellim 109 NW Wilmington Ave., Suite E, Bend, OR 97703
        gem@rellim.com  Tel:+1 541 382 8588

            Veritas liberabit vos. -- Quid est veritas?
    "If you can't measure it, you can't improve it." - Lord Kelvin

Fred Wright pushed to branch master at gpsd / gpsd

Commits:

6 changed files:

Changes:

  • man/gpscat.xml
    ... ... @@ -96,7 +96,7 @@ parentheses) reported before a colon and space on each line.</para>
    96 96
     <listitem>
    
    97 97
     <para>In packetizer mode, enable progress messages from the packet
    
    98 98
     getter.  Probably only of interest to developers testing packet
    
    99
    -getter changes.  Higher arguements to D produce more output.</para>
    
    99
    +getter changes.  Higher arguments to D produce more output.</para>
    
    100 100
     </listitem>
    
    101 101
     </varlistentry>
    
    102 102
     
    

  • test/daemon/ais-nmea-type6-fid55.log
    1
    +# Name: AIS NMEA type 6
    
    2
    +# Submitter: Sven Geggus <lists@fuchsschwanzdomain.de>
    
    3
    +# Date: 2018-09-04
    
    4
    +#
    
    5
    +# This file is Copyright (c) 2018 by the GPSD project
    
    6
    +# BSD terms apply: see the file COPYING in the distribution root for details.
    
    7
    +#
    
    1 8
     !AIVDM,1,1,,B,13nUgBWP01PkHvDU7<kC4wvJ2>`<,0*27
    
    2 9
     !AIVDM,1,1,,B,13aIkChP000FdsjMv=U:;wvL2>`<,0*5B
    
    3 10
     !AIVDM,1,1,,A,139qWm0P00PPEm6M3Gj>4?vLR>`<,0*44
    

  • test/daemon/ais_unpack_sixbit.log
    1
    +# Name: AIS sixbit
    
    2
    +# Submitter: Stefan Roels <sroels-gpsd-dev@42solutions.nl>
    
    3
    +# Date: 2015-10-02
    
    4
    +#
    
    5
    +# This file is Copyright (c) 2015 by the GPSD project
    
    6
    +# BSD terms apply: see the file COPYING in the distribution root for details.
    
    7
    +#
    
    1 8
     !AIVDM,2,1,7,B,53aDpaT000010;CKKB0h4Q8TpLDr222222222216<P:656rd07Tai0CKk5hD,0*74
    
    2 9
     !AIVDM,2,2,7,B,Q1C`8888880,2*63
    
    3 10
     !AIVDM,2,1,2,B,53a=JT41haoI0GKSG6058=@T>1=Dq8U<F222220V1pR847<:0<hCDm1DQ0CH8888,0*0B
    

  • test/daemon/skytraq-bin.log
    No preview for this file type
  • test/daemon/ublox-neo-m9n-nmea.log
    1
    +# Name: u-blox NEO-M9N NMEA
    
    2
    +# Chipset: u-blox NEO-M9N
    
    3
    +# Submitter: Fred Wright <fw@fwright.net>
    
    4
    +# Date: 2020-07-11
    
    5
    +# Location: Novato, CA, USA
    
    6
    +#
    
    7
    +# This provides a sample of xxGSV sentences with four simultaneous GNSSes.
    
    8
    +#
    
    9
    +# This file is Copyright (c) 2020 by the GPSD project
    
    10
    +# BSD terms apply: see the file COPYING in the distribution root for details.
    
    11
    +#
    
    12
    +$GNRMC,223745.00,A,3806.62964,N,12237.61382,W,0.040,,110720,,,D,V*0E
    
    13
    +$GNVTG,,T,,M,0.040,N,0.075,K,D*3E
    
    14
    +$GNGGA,223745.00,3806.62964,N,12237.61382,W,2,12,0.54,83.1,M,-29.5,M,,0000*44
    
    15
    +$GNGSA,A,3,29,20,18,16,51,13,44,26,,,,,0.99,0.54,0.83,1*0E
    
    16
    +$GNGSA,A,3,82,73,74,67,81,83,68,,,,,,0.99,0.54,0.83,2*08
    
    17
    +$GNGSA,A,3,03,05,30,27,15,,,,,,,,0.99,0.54,0.83,3*0D
    
    18
    +$GNGSA,A,3,32,28,30,33,27,,,,,,,,0.99,0.54,0.83,4*03
    
    19
    +$GPGSV,4,1,16,05,01,047,,10,29,224,,13,22,062,23,15,40,094,,1*65
    
    20
    +$GPGSV,4,2,16,16,25,306,30,18,68,358,39,20,63,235,37,21,35,292,,1*6B
    
    21
    +$GPGSV,4,3,16,23,58,225,,25,00,179,,26,33,265,35,27,07,316,,1*60
    
    22
    +$GPGSV,4,4,16,29,46,133,43,44,45,171,45,46,45,191,43,51,43,156,43,1*60
    
    23
    +$GLGSV,3,1,10,66,09,027,,67,56,054,40,68,55,168,44,69,08,194,21,1*79
    
    24
    +$GLGSV,3,2,10,73,13,282,27,74,10,318,13,81,09,110,16,82,51,077,39,1*7A
    
    25
    +$GLGSV,3,3,10,83,52,346,29,84,05,307,,1*72
    
    26
    +$GAGSV,3,1,10,03,44,149,40,05,42,071,39,08,08,190,,09,06,034,,7*74
    
    27
    +$GAGSV,3,2,10,13,11,292,,15,56,322,39,21,10,318,,27,24,268,26,7*75
    
    28
    +$GAGSV,3,3,10,30,14,215,16,36,08,098,,7*79
    
    29
    +$GBGSV,2,1,07,04,01,262,,07,03,328,,27,78,059,44,28,29,115,34,1*79
    
    30
    +$GBGSV,2,2,07,30,37,312,36,32,45,196,44,33,20,043,27,1*4D
    
    31
    +$GNGLL,3806.62964,N,12237.61382,W,223745.00,A,D*6C
    
    32
    +$GNGST,223745.00,228650,2.5,2.4,126,0.98,1.0,3.1*41
    
    33
    +$GNZDA,223745.00,11,07,2020,00,00*7A
    
    34
    +$GNGBS,223745.00,1.0,1.0,3.1,,,,,,*58
    
    35
    +$GNRMC,223746.00,A,3806.62966,N,12237.61384,W,0.061,,110720,,,D,V*0A
    
    36
    +$GNVTG,,T,,M,0.061,N,0.114,K,D*3B
    
    37
    +$GNGGA,223746.00,3806.62966,N,12237.61384,W,2,12,0.56,83.0,M,-29.5,M,,0000*40
    
    38
    +$GNGSA,A,3,29,20,18,16,51,13,44,26,,,,,1.04,0.56,0.88,1*02
    
    39
    +$GNGSA,A,3,82,73,74,67,81,83,68,,,,,,1.04,0.56,0.88,2*04
    
    40
    +$GNGSA,A,3,03,05,30,27,15,,,,,,,,1.04,0.56,0.88,3*01
    
    41
    +$GNGSA,A,3,32,28,30,33,27,,,,,,,,1.04,0.56,0.88,4*0F
    
    42
    +$GPGSV,4,1,16,05,01,047,,10,29,224,,13,22,062,24,15,40,094,,1*62
    
    43
    +$GPGSV,4,2,16,16,25,306,29,18,68,358,39,20,63,235,37,21,35,292,,1*63
    
    44
    +$GPGSV,4,3,16,23,58,225,,25,00,179,,26,33,265,36,27,07,316,,1*63
    
    45
    +$GPGSV,4,4,16,29,46,133,43,44,45,171,45,46,45,191,43,51,43,156,43,1*60
    
    46
    +$GLGSV,3,1,10,66,09,027,,67,56,054,40,68,55,168,44,69,08,194,20,1*78
    
    47
    +$GLGSV,3,2,10,73,13,282,30,74,10,318,15,81,09,110,11,82,51,077,39,1*7D
    
    48
    +$GLGSV,3,3,10,83,52,346,29,84,05,307,,1*72
    
    49
    +$GAGSV,3,1,10,03,44,149,40,05,42,071,40,08,08,190,,09,06,034,,7*7A
    
    50
    +$GAGSV,3,2,10,13,11,292,,15,56,322,38,21,10,318,,27,24,268,27,7*75
    
    51
    +$GAGSV,3,3,10,30,14,215,20,36,08,098,,7*7C
    
    52
    +$GBGSV,2,1,07,04,01,262,,07,03,328,,27,78,059,44,28,29,115,34,1*79
    
    53
    +$GBGSV,2,2,07,30,37,312,36,32,45,196,44,33,20,043,29,1*43
    
    54
    +$GNGLL,3806.62966,N,12237.61384,W,223746.00,A,D*6B
    
    55
    +$GNGST,223746.00,837,2.5,2.4,127,0.98,1.0,3.0*75
    
    56
    +$GNZDA,223746.00,11,07,2020,00,00*79
    
    57
    +$GNGBS,223746.00,1.0,1.0,3.0,,,,,,*5A
    
    58
    +$GNRMC,223747.00,A,3806.62968,N,12237.61386,W,0.084,,110720,,,D,V*0C
    
    59
    +$GNVTG,,T,,M,0.084,N,0.155,K,D*35
    
    60
    +$GNGGA,223747.00,3806.62968,N,12237.61386,W,2,12,0.56,83.0,M,-29.5,M,,0000*4D
    
    61
    +$GNGSA,A,3,29,20,18,16,51,13,44,26,,,,,1.04,0.56,0.88,1*02
    
    62
    +$GNGSA,A,3,82,73,74,67,81,83,68,,,,,,1.04,0.56,0.88,2*04
    
    63
    +$GNGSA,A,3,03,05,30,27,15,,,,,,,,1.04,0.56,0.88,3*01
    
    64
    +$GNGSA,A,3,32,28,30,33,27,,,,,,,,1.04,0.56,0.88,4*0F
    
    65
    +$GPGSV,4,1,16,05,01,047,,10,29,224,,13,22,062,23,15,40,094,,1*65
    
    66
    +$GPGSV,4,2,16,16,25,306,28,18,68,358,39,20,63,235,37,21,35,292,,1*62
    
    67
    +$GPGSV,4,3,16,23,58,225,,25,00,179,,26,33,265,36,27,07,316,,1*63
    
    68
    +$GPGSV,4,4,16,29,46,133,42,44,45,171,45,46,45,191,43,51,43,156,43,1*61
    
    69
    +$GLGSV,3,1,10,66,09,027,,67,56,054,40,68,55,168,44,69,08,194,18,1*73
    
    70
    +$GLGSV,3,2,10,73,13,282,30,74,10,318,11,81,09,110,13,82,51,077,40,1*75
    
    71
    +$GLGSV,3,3,10,83,52,346,29,84,05,307,,1*72
    
    72
    +$GAGSV,3,1,10,03,44,149,41,05,42,071,39,08,08,190,,09,06,034,,7*75
    
    73
    +$GAGSV,3,2,10,13,11,292,,15,56,322,39,21,10,318,,27,24,268,27,7*74
    
    74
    +$GAGSV,3,3,10,30,14,215,21,36,08,098,,7*7D
    
    75
    +$GBGSV,2,1,07,04,01,262,,07,03,328,,27,78,059,43,28,29,115,34,1*7E
    
    76
    +$GBGSV,2,2,07,30,37,312,36,32,45,196,43,33,20,043,29,1*44
    
    77
    +$GNGLL,3806.62968,N,12237.61386,W,223747.00,A,D*66
    
    78
    +$GNGST,223747.00,865,2.5,2.4,125,0.98,1.0,3.0*71
    
    79
    +$GNZDA,223747.00,11,07,2020,00,00*78
    
    80
    +$GNGBS,223747.00,1.0,1.0,3.0,,,,,,*5B
    
    81
    +$GNRMC,223748.00,A,3806.62969,N,12237.61387,W,0.041,,110720,,,D,V*0A
    
    82
    +$GNVTG,,T,,M,0.041,N,0.076,K,D*3C
    
    83
    +$GNGGA,223748.00,3806.62969,N,12237.61387,W,2,12,0.56,82.9,M,-29.5,M,,0000*4A
    
    84
    +$GNGSA,A,3,29,20,18,16,51,13,44,26,,,,,1.04,0.56,0.88,1*02
    
    85
    +$GNGSA,A,3,82,73,74,67,81,83,68,,,,,,1.04,0.56,0.88,2*04
    
    86
    +$GNGSA,A,3,03,05,30,27,15,,,,,,,,1.04,0.56,0.88,3*01
    
    87
    +$GNGSA,A,3,32,28,30,33,27,,,,,,,,1.04,0.56,0.88,4*0F
    
    88
    +$GPGSV,4,1,16,05,01,047,,10,29,224,,13,22,062,23,15,40,094,,1*65
    
    89
    +$GPGSV,4,2,16,16,25,306,28,18,68,358,39,20,63,235,36,21,35,292,,1*63
    
    90
    +$GPGSV,4,3,16,23,58,225,,25,00,179,,26,33,265,36,27,07,316,,1*63
    
    91
    +$GPGSV,4,4,16,29,46,133,43,44,45,171,45,46,45,191,42,51,43,156,43,1*61
    
    92
    +$GLGSV,3,1,10,66,09,027,,67,56,054,40,68,55,168,44,69,08,194,19,1*72
    
    93
    +$GLGSV,3,2,10,73,13,282,30,74,10,318,12,81,09,110,18,82,51,077,40,1*7D
    
    94
    +$GLGSV,3,3,10,83,52,346,28,84,05,307,,1*73
    
    95
    +$GAGSV,3,1,10,03,44,149,41,05,42,071,39,08,08,190,,09,06,034,,7*75
    
    96
    +$GAGSV,3,2,10,13,11,292,,15,56,322,39,21,10,318,,27,24,268,27,7*74
    
    97
    +$GAGSV,3,3,10,30,14,215,21,36,08,098,,7*7D
    
    98
    +$GBGSV,2,1,07,04,01,262,,07,03,328,,27,78,059,43,28,29,115,35,1*7F
    
    99
    +$GBGSV,2,2,07,30,38,312,37,32,45,196,43,33,20,043,29,1*4A
    
    100
    +$GNGLL,3806.62969,N,12237.61387,W,223748.00,A,D*69
    
    101
    +$GNGST,223748.00,865,2.5,2.4,125,0.98,1.0,3.0*7E
    
    102
    +$GNZDA,223748.00,11,07,2020,00,00*77
    
    103
    +$GNGBS,223748.00,1.0,1.0,3.0,,,,,,*54
    
    104
    +$GNRMC,223749.00,A,3806.62969,N,12237.61388,W,0.012,,110720,,,D,V*02
    
    105
    +$GNVTG,,T,,M,0.012,N,0.021,K,D*38
    
    106
    +$GNGGA,223749.00,3806.62969,N,12237.61388,W,2,12,0.56,82.8,M,-29.5,M,,0000*45
    
    107
    +$GNGSA,A,3,29,20,18,16,51,13,44,26,,,,,1.04,0.56,0.88,1*02
    
    108
    +$GNGSA,A,3,82,73,74,67,81,83,68,,,,,,1.04,0.56,0.88,2*04
    
    109
    +$GNGSA,A,3,03,05,30,27,15,,,,,,,,1.04,0.56,0.88,3*01
    
    110
    +$GNGSA,A,3,32,28,30,33,27,,,,,,,,1.04,0.56,0.88,4*0F
    
    111
    +$GPGSV,4,1,16,05,01,047,,10,29,224,,13,22,062,23,15,40,094,,1*65
    
    112
    +$GPGSV,4,2,16,16,25,306,29,18,68,358,38,20,63,235,37,21,35,292,,1*62
    
    113
    +$GPGSV,4,3,16,23,58,225,,25,00,179,,26,33,265,36,27,07,316,,1*63
    
    114
    +$GPGSV,4,4,16,29,46,133,43,44,45,171,45,46,45,191,43,51,43,156,43,1*60
    
    115
    +$GLGSV,3,1,10,66,09,027,,67,56,054,40,68,55,168,44,69,08,194,19,1*72
    
    116
    +$GLGSV,3,2,10,73,13,282,31,74,10,318,16,81,09,110,15,82,51,077,40,1*75
    
    117
    +$GLGSV,3,3,10,83,52,346,28,84,05,307,,1*73
    
    118
    +$GAGSV,3,1,10,03,44,149,41,05,42,071,39,08,08,190,,09,06,034,,7*75
    
    119
    +$GAGSV,3,2,10,13,11,292,,15,56,322,39,21,10,318,,27,24,268,28,7*7B
    
    120
    +$GAGSV,3,3,10,30,14,215,18,36,08,098,,7*77
    
    121
    +$GBGSV,2,1,07,04,01,262,,07,03,328,,27,78,059,43,28,29,115,35,1*7F
    
    122
    +$GBGSV,2,2,07,30,38,312,37,32,46,196,44,33,20,043,28,1*4F
    
    123
    +$GNGLL,3806.62969,N,12237.61388,W,223749.00,A,D*67
    
    124
    +$GNGST,223749.00,837,2.5,2.4,126,0.98,1.0,3.0*7B
    
    125
    +$GNZDA,223749.00,11,07,2020,00,00*76
    
    126
    +$GNGBS,223749.00,1.0,1.0,3.0,,,,,,*55
    
    127
    +$GNRMC,223750.00,A,3806.62969,N,12237.61389,W,0.039,,110720,,,D,V*02
    
    128
    +$GNVTG,,T,,M,0.039,N,0.072,K,D*37
    
    129
    +$GNGGA,223750.00,3806.62969,N,12237.61389,W,2,12,0.56,82.7,M,-29.5,M,,0000*43
    
    130
    +$GNGSA,A,3,29,20,18,16,51,13,44,26,,,,,1.04,0.56,0.88,1*02
    
    131
    +$GNGSA,A,3,82,73,74,67,81,83,68,,,,,,1.04,0.56,0.88,2*04
    
    132
    +$GNGSA,A,3,03,05,30,27,15,,,,,,,,1.04,0.56,0.88,3*01
    
    133
    +$GNGSA,A,3,32,28,30,33,27,,,,,,,,1.04,0.56,0.88,4*0F
    
    134
    +$GPGSV,4,1,16,05,01,047,,10,29,224,,13,22,062,23,15,40,094,,1*65
    
    135
    +$GPGSV,4,2,16,16,25,306,29,18,68,358,39,20,63,235,37,21,35,292,,1*63
    
    136
    +$GPGSV,4,3,16,23,58,225,,25,00,179,,26,33,265,35,27,07,316,,1*60
    
    137
    +$GPGSV,4,4,16,29,46,133,44,44,45,171,45,46,45,191,43,51,43,156,43,1*67
    
    138
    +$GLGSV,3,1,10,66,09,027,,67,56,054,40,68,55,168,44,69,08,194,18,1*73
    
    139
    +$GLGSV,3,2,10,73,13,282,31,74,10,318,10,81,09,110,19,82,51,077,39,1*71
    
    140
    +$GLGSV,3,3,10,83,52,346,28,84,05,307,,1*73
    
    141
    +$GAGSV,3,1,10,03,44,149,41,05,42,071,39,08,08,190,,09,06,034,,7*75
    
    142
    +$GAGSV,3,2,10,13,11,292,,15,56,322,39,21,10,318,,27,24,268,29,7*7A
    
    143
    +$GAGSV,3,3,10,30,14,215,20,36,08,098,,7*7C
    
    144
    +$GBGSV,2,1,07,04,01,262,,07,03,328,,27,78,059,44,28,29,115,35,1*78
    
    145
    +$GBGSV,2,2,07,30,38,312,37,32,46,196,44,33,19,043,28,1*45
    
    146
    +$GNGLL,3806.62969,N,12237.61389,W,223750.00,A,D*6E
    
    147
    +$GNGST,223750.00,851,2.5,2.4,125,0.98,1.0,3.0*70
    
    148
    +$GNZDA,223750.00,11,07,2020,00,00*7E
    
    149
    +$GNGBS,223750.00,1.0,1.0,3.0,,,,,,*5D
    
    150
    +$GNRMC,223751.00,A,3806.62969,N,12237.61388,W,0.046,,110720,,,D,V*0A
    
    151
    +$GNVTG,,T,,M,0.046,N,0.085,K,D*37
    
    152
    +$GNGGA,223751.00,3806.62969,N,12237.61388,W,2,12,0.57,82.6,M,-29.5,M,,0000*43
    
    153
    +$GNGSA,A,3,29,20,18,16,51,44,26,,,,,,1.03,0.57,0.86,1*08
    
    154
    +$GNGSA,A,3,82,73,74,67,81,83,68,,,,,,1.03,0.57,0.86,2*0C
    
    155
    +$GNGSA,A,3,03,05,30,27,15,,,,,,,,1.03,0.57,0.86,3*09
    
    156
    +$GNGSA,A,3,32,28,30,33,27,,,,,,,,1.03,0.57,0.86,4*07
    
    157
    +$GPGSV,4,1,16,05,01,047,,10,29,224,,13,22,062,,15,40,094,,1*64
    
    158
    +$GPGSV,4,2,16,16,25,306,28,18,68,358,38,20,63,235,37,21,35,292,,1*63
    
    159
    +$GPGSV,4,3,16,23,58,225,,25,00,179,,26,33,265,35,27,07,316,,1*60
    
    160
    +$GPGSV,4,4,16,29,46,133,44,44,45,171,45,46,45,191,43,51,43,156,43,1*67
    
    161
    +$GLGSV,3,1,10,66,09,027,,67,56,054,40,68,55,168,44,69,08,194,18,1*73
    
    162
    +$GLGSV,3,2,10,73,13,282,30,74,10,318,14,81,09,110,15,82,51,077,40,1*76
    
    163
    +$GLGSV,3,3,10,83,52,346,29,84,05,307,,1*72
    
    164
    +$GAGSV,3,1,10,03,44,149,41,05,42,071,39,08,08,190,,09,06,034,,7*75
    
    165
    +$GAGSV,3,2,10,13,11,292,,15,56,322,39,21,10,318,,27,24,268,28,7*7B
    
    166
    +$GAGSV,3,3,10,30,14,215,20,36,08,098,,7*7C
    
    167
    +$GBGSV,2,1,07,04,01,262,,07,03,328,,27,78,059,43,28,29,115,35,1*7F
    
    168
    +$GBGSV,2,2,07,30,38,312,37,32,46,196,44,33,19,043,29,1*44
    
    169
    +$GNGLL,3806.62969,N,12237.61388,W,223751.00,A,D*6E
    
    170
    +$GNGST,223751.00,225199,2.5,2.4,125,0.98,1.0,3.0*49
    
    171
    +$GNZDA,223751.00,11,07,2020,00,00*7F
    
    172
    +$GNGBS,223751.00,1.0,1.0,3.0,,,,,,*5C
    
    173
    +$GNRMC,223752.00,A,3806.62970,N,12237.61389,W,0.040,,110720,,,D,V*06
    
    174
    +$GNVTG,,T,,M,0.040,N,0.074,K,D*3F
    
    175
    +$GNGGA,223752.00,3806.62970,N,12237.61389,W,2,12,0.57,82.5,M,-29.5,M,,0000*4A
    
    176
    +$GNGSA,A,3,29,20,10,18,16,51,44,26,,,,,1.07,0.57,0.91,1*0B
    
    177
    +$GNGSA,A,3,82,73,74,67,81,83,68,,,,,,1.07,0.57,0.91,2*0E
    
    178
    +$GNGSA,A,3,03,05,30,27,15,,,,,,,,1.07,0.57,0.91,3*0B
    
    179
    +$GNGSA,A,3,32,28,30,33,27,,,,,,,,1.07,0.57,0.91,4*05
    
    180
    +$GPGSV,4,1,16,05,01,047,,10,29,224,36,13,22,062,,15,40,094,,1*61
    
    181
    +$GPGSV,4,2,16,16,25,306,28,18,68,358,38,20,63,235,37,21,35,292,,1*63
    
    182
    +$GPGSV,4,3,16,23,58,225,,25,00,179,,26,33,265,35,27,07,316,,1*60
    
    183
    +$GPGSV,4,4,16,29,46,133,44,44,45,171,45,46,45,191,42,51,43,156,43,1*66
    
    184
    +$GLGSV,3,1,10,66,08,027,,67,56,054,40,68,55,168,44,69,08,194,18,1*72
    
    185
    +$GLGSV,3,2,10,73,13,282,29,74,10,318,14,81,09,110,16,82,51,077,40,1*7D
    
    186
    +$GLGSV,3,3,10,83,52,346,28,84,05,307,,1*73
    
    187
    +$GAGSV,3,1,10,03,44,149,41,05,42,071,39,08,08,190,,09,06,034,,7*75
    
    188
    +$GAGSV,3,2,10,13,11,292,,15,56,322,39,21,10,318,,27,24,268,27,7*74
    
    189
    +$GAGSV,3,3,10,30,14,215,20,36,08,098,,7*7C
    
    190
    +$GBGSV,2,1,07,04,01,262,,07,03,328,,27,78,059,44,28,29,115,35,1*78
    
    191
    +$GBGSV,2,2,07,30,38,312,36,32,46,196,43,33,19,043,28,1*43
    
    192
    +$GNGLL,3806.62970,N,12237.61389,W,223752.00,A,D*64
    
    193
    +$GNGST,223752.00,837,2.5,2.4,130,0.98,0.99,3.0*47
    
    194
    +$GNZDA,223752.00,11,07,2020,00,00*7C
    
    195
    +$GNGBS,223752.00,1.0,1.0,3.0,,,,,,*5F
    
    196
    +$GNRMC,223753.00,A,3806.62972,N,12237.61391,W,0.021,,110720,,,D,V*0B
    
    197
    +$GNVTG,,T,,M,0.021,N,0.038,K,D*30
    
    198
    +$GNGGA,223753.00,3806.62972,N,12237.61391,W,2,12,0.57,82.4,M,-29.5,M,,0000*41
    
    199
    +$GNGSA,A,3,29,20,10,18,16,51,44,26,,,,,1.07,0.57,0.91,1*0B
    
    200
    +$GNGSA,A,3,82,73,74,67,81,83,68,,,,,,1.07,0.57,0.91,2*0E
    
    201
    +$GNGSA,A,3,03,05,30,27,15,,,,,,,,1.07,0.57,0.91,3*0B
    
    202
    +$GNGSA,A,3,32,28,30,33,27,,,,,,,,1.07,0.57,0.91,4*05
    
    203
    +$GPGSV,4,1,16,05,01,047,,10,29,224,37,13,22,062,,15,40,094,,1*60
    
    204
    +$GPGSV,4,2,16,16,25,306,29,18,68,358,39,20,63,235,37,21,35,292,,1*63
    
    205
    +$GPGSV,4,3,16,23,58,225,,25,00,179,,26,33,265,35,27,07,316,,1*60
    
    206
    +$GPGSV,4,4,16,29,46,133,44,44,45,171,45,46,45,191,42,51,43,156,43,1*66
    
    207
    +$GLGSV,3,1,10,66,08,027,,67,55,052,40,68,55,168,44,69,08,194,19,1*76
    
    208
    +$GLGSV,3,2,10,73,13,282,30,74,10,318,14,81,09,110,10,82,51,077,40,1*73
    
    209
    +$GLGSV,3,3,10,83,52,346,27,84,05,307,,1*7C
    
    210
    +$GAGSV,3,1,10,03,44,149,41,05,42,071,39,08,08,190,,09,06,034,,7*75
    
    211
    +$GAGSV,3,2,10,13,11,292,,15,56,322,39,21,10,318,,27,24,268,27,7*74
    
    212
    +$GAGSV,3,3,10,30,14,215,19,36,08,098,,7*76
    
    213
    +$GBGSV,2,1,07,04,01,262,,07,03,328,,27,78,059,44,28,29,115,34,1*79
    
    214
    +$GBGSV,2,2,07,30,38,312,36,32,46,196,44,33,19,043,28,1*44
    
    215
    +$GNGLL,3806.62972,N,12237.61391,W,223753.00,A,D*6E
    
    216
    +$GNGST,223753.00,151766,2.5,2.4,134,0.98,0.98,3.0*7D
    
    217
    +$GNZDA,223753.00,11,07,2020,00,00*7D
    
    218
    +$GNGBS,223753.00,1.0,1.0,3.0,,,,,,*5E
    
    219
    +$GNRMC,223754.00,A,3806.62972,N,12237.61393,W,0.061,,110720,,,D,V*0A
    
    220
    +$GNVTG,,T,,M,0.061,N,0.114,K,D*3B
    
    221
    +$GNGGA,223754.00,3806.62972,N,12237.61393,W,2,12,0.57,82.3,M,-29.5,M,,0000*43
    
    222
    +$GNGSA,A,3,29,20,10,18,16,51,44,26,,,,,1.07,0.57,0.91,1*0B
    
    223
    +$GNGSA,A,3,82,73,74,67,81,83,68,,,,,,1.07,0.57,0.91,2*0E
    
    224
    +$GNGSA,A,3,03,05,30,27,15,,,,,,,,1.07,0.57,0.91,3*0B
    
    225
    +$GNGSA,A,3,32,28,30,33,27,,,,,,,,1.07,0.57,0.91,4*05
    
    226
    +$GPGSV,4,1,16,05,01,047,,10,29,224,36,13,22,062,,15,40,094,,1*61
    
    227
    +$GPGSV,4,2,16,16,25,306,28,18,68,358,39,20,63,235,37,21,35,292,,1*62
    
    228
    +$GPGSV,4,3,16,23,58,225,,25,00,179,,26,33,265,35,27,07,316,,1*60
    
    229
    +$GPGSV,4,4,16,29,46,133,44,44,45,171,45,46,45,191,42,51,43,156,43,1*66
    
    230
    +$GLGSV,3,1,10,66,08,027,,67,55,052,40,68,56,168,45,69,08,194,18,1*75
    
    231
    +$GLGSV,3,2,10,73,13,282,29,74,10,318,12,81,09,110,20,82,51,077,40,1*7E
    
    232
    +$GLGSV,3,3,10,83,52,346,28,84,05,307,,1*73
    
    233
    +$GAGSV,3,1,10,03,44,149,41,05,42,071,39,08,08,190,,09,06,034,,7*75
    
    234
    +$GAGSV,3,2,10,13,11,292,,15,56,322,39,21,10,318,,27,24,268,28,7*7B
    
    235
    +$GAGSV,3,3,10,30,14,215,20,36,08,098,,7*7C
    
    236
    +$GBGSV,2,1,07,04,01,262,,07,03,328,,27,78,059,44,28,29,115,33,1*7E
    
    237
    +$GBGSV,2,2,07,30,38,312,37,32,46,196,44,33,19,043,28,1*45
    
    238
    +$GNGLL,3806.62972,N,12237.61393,W,223754.00,A,D*6B
    
    239
    +$GNGST,223754.00,225199,2.5,2.4,139,0.98,0.98,3.0*71
    
    240
    +$GNZDA,223754.00,11,07,2020,00,00*7A
    
    241
    +$GNGBS,223754.00,1.0,1.0,3.0,,,,,,*59
    
    242
    +$GNRMC,223755.00,A,3806.62973,N,12237.61395,W,0.051,,110720,,,D,V*0F
    
    243
    +$GNVTG,,T,,M,0.051,N,0.094,K,D*31
    
    244
    +$GNGGA,223755.00,3806.62973,N,12237.61395,W,2,12,0.55,82.1,M,-29.5,M,,0000*45
    
    245
    +$GNGSA,A,3,29,20,10,18,16,51,44,26,,,,,1.02,0.55,0.85,1*09
    
    246
    +$GNGSA,A,3,82,73,74,67,81,83,68,,,,,,1.02,0.55,0.85,2*0C
    
    247
    +$GNGSA,A,3,03,05,30,27,15,,,,,,,,1.02,0.55,0.85,3*09
    
    248
    +$GNGSA,A,3,32,28,30,33,27,,,,,,,,1.02,0.55,0.85,4*07
    
    249
    +$GPGSV,4,1,16,05,01,047,,10,29,224,36,13,22,062,,15,40,094,,1*61
    
    250
    +$GPGSV,4,2,16,16,25,306,28,18,68,358,39,20,63,235,37,21,35,292,,1*62
    
    251
    +$GPGSV,4,3,16,23,58,225,,25,00,179,,26,33,265,34,27,07,316,,1*61
    
    252
    +$GPGSV,4,4,16,29,46,133,44,44,45,171,45,46,45,191,43,51,43,156,43,1*67
    
    253
    +$GLGSV,3,1,10,66,08,027,,67,55,052,40,68,56,168,45,69,09,194,18,1*74
    
    254
    +$GLGSV,3,2,10,73,13,282,29,74,10,318,17,81,09,110,17,82,51,077,40,1*7F
    
    255
    +$GLGSV,3,3,10,83,52,346,28,84,05,307,,1*73
    
    256
    +$GAGSV,3,1,10,03,44,149,41,05,42,071,40,08,08,190,,09,06,034,,7*7B
    
    257
    +$GAGSV,3,2,10,13,11,292,,15,56,322,38,21,10,318,,27,24,268,27,7*75
    
    258
    +$GAGSV,3,3,10,30,14,215,20,36,08,098,,7*7C
    
    259
    +$GBGSV,2,1,07,04,01,262,,07,03,328,,27,78,059,44,28,29,115,33,1*7E
    
    260
    +$GBGSV,2,2,07,30,38,312,36,32,46,196,44,33,19,043,28,1*44
    
    261
    +$GNGLL,3806.62973,N,12237.61395,W,223755.00,A,D*6D
    
    262
    +$GNGST,223755.00,820,2.5,2.4,141,0.98,0.97,3.0*4E
    
    263
    +$GNZDA,223755.00,11,07,2020,00,00*7B
    
    264
    +$GNGBS,223755.00,1.0,1.0,3.0,,,,,,*58
    
    265
    +$GNRMC,223756.00,A,3806.62973,N,12237.61399,W,0.039,,110720,,,D,V*0E
    
    266
    +$GNVTG,,T,,M,0.039,N,0.071,K,D*34
    
    267
    +$GNGGA,223756.00,3806.62973,N,12237.61399,W,2,12,0.57,82.1,M,-29.5,M,,0000*48
    
    268
    +$GNGSA,A,3,29,20,10,18,16,51,44,26,,,,,1.07,0.57,0.91,1*0B
    
    269
    +$GNGSA,A,3,82,73,74,67,81,83,68,,,,,,1.07,0.57,0.91,2*0E
    
    270
    +$GNGSA,A,3,03,05,30,27,15,,,,,,,,1.07,0.57,0.91,3*0B
    
    271
    +$GNGSA,A,3,32,28,30,33,27,,,,,,,,1.07,0.57,0.91,4*05
    
    272
    +$GPGSV,4,1,16,05,01,047,,10,29,224,36,13,22,062,,15,40,094,,1*61
    
    273
    +$GPGSV,4,2,16,16,25,306,27,18,68,358,38,20,63,235,37,21,35,292,,1*6C
    
    274
    +$GPGSV,4,3,16,23,58,225,,25,00,179,,26,33,265,35,27,07,316,,1*60
    
    275
    +$GPGSV,4,4,16,29,46,133,44,44,45,171,45,46,45,191,43,51,43,156,43,1*67
    
    276
    +$GLGSV,3,1,10,66,08,027,,67,55,052,40,68,56,168,45,69,09,194,18,1*74
    
    277
    +$GLGSV,3,2,10,73,13,282,27,74,10,318,10,81,09,110,21,82,51,077,40,1*73
    
    278
    +$GLGSV,3,3,10,83,52,346,28,84,05,307,,1*73
    
    279
    +$GAGSV,3,1,10,03,44,149,41,05,42,071,39,08,08,190,,09,06,034,,7*75
    
    280
    +$GAGSV,3,2,10,13,11,292,,15,56,322,38,21,10,318,,27,24,268,26,7*74
    
    281
    +$GAGSV,3,3,10,30,14,215,18,36,08,098,,7*77
    
    282
    +$GBGSV,2,1,07,04,01,262,,07,03,328,,27,78,059,44,28,29,115,34,1*79
    
    283
    +$GBGSV,2,2,07,30,38,312,36,32,46,196,43,33,19,043,28,1*43
    
    284
    +$GNGLL,3806.62973,N,12237.61399,W,223756.00,A,D*62
    
    285
    +$GNGST,223756.00,851,2.5,2.4,144,0.98,0.97,3.0*4E
    
    286
    +$GNZDA,223756.00,11,07,2020,00,00*78
    
    287
    +$GNGBS,223756.00,1.0,1.0,3.0,,,,,,*5B
    
    288
    +$GNRMC,223757.00,A,3806.62974,N,12237.61403,W,0.039,,110720,,,D,V*0C
    
    289
    +$GNVTG,,T,,M,0.039,N,0.072,K,D*37
    
    290
    +$GNGGA,223757.00,3806.62974,N,12237.61403,W,2,12,0.57,82.1,M,-29.5,M,,0000*4A
    
    291
    +$GNGSA,A,3,29,20,10,18,16,51,44,26,,,,,1.07,0.57,0.91,1*0B
    
    292
    +$GNGSA,A,3,82,73,74,67,81,83,68,,,,,,1.07,0.57,0.91,2*0E
    
    293
    +$GNGSA,A,3,03,05,30,27,15,,,,,,,,1.07,0.57,0.91,3*0B
    
    294
    +$GNGSA,A,3,32,28,30,33,27,,,,,,,,1.07,0.57,0.91,4*05
    
    295
    +$GPGSV,4,1,16,05,01,047,,10,29,224,36,13,22,062,,15,40,094,,1*61
    
    296
    +$GPGSV,4,2,16,16,25,306,27,18,68,358,39,20,63,235,37,21,35,292,,1*6D
    
    297
    +$GPGSV,4,3,16,23,58,225,,25,00,179,,26,33,265,35,27,07,316,,1*60
    
    298
    +$GPGSV,4,4,16,29,46,133,44,44,45,171,45,46,45,191,43,51,43,156,43,1*67
    
    299
    +$GLGSV,3,1,10,66,08,027,,67,55,052,40,68,56,168,45,69,09,194,18,1*74
    
    300
    +$GLGSV,3,2,10,73,13,282,26,74,10,318,15,81,09,110,16,82,51,077,40,1*73
    
    301
    +$GLGSV,3,3,10,83,52,346,27,84,05,307,,1*7C
    
    302
    +$GAGSV,3,1,10,03,44,149,41,05,42,071,40,08,08,190,,09,06,034,,7*7B
    
    303
    +$GAGSV,3,2,10,13,11,292,,15,56,322,38,21,10,318,,27,24,268,25,7*77
    
    304
    +$GAGSV,3,3,10,30,14,215,18,36,08,098,,7*77
    
    305
    +$GBGSV,2,1,07,04,01,262,,07,03,328,,27,78,059,44,28,29,115,35,1*78
    
    306
    +$GBGSV,2,2,07,30,38,312,37,32,46,196,43,33,19,043,28,1*42
    
    307
    +$GNGLL,3806.62974,N,12237.61403,W,223757.00,A,D*60
    
    308
    +$GNGST,223757.00,851,2.5,2.4,144,0.98,0.97,3.0*4F
    
    309
    +$GNZDA,223757.00,11,07,2020,00,00*79
    
    310
    +$GNGBS,223757.00,1.0,1.0,3.0,,,,,,*5A
    
    311
    +$GNRMC,223758.00,A,3806.62976,N,12237.61407,W,0.028,,110720,,,D,V*05
    
    312
    +$GNVTG,,T,,M,0.028,N,0.052,K,D*35
    
    313
    +$GNGGA,223758.00,3806.62976,N,12237.61407,W,2,12,0.57,82.0,M,-29.5,M,,0000*42
    
    314
    +$GNGSA,A,3,29,20,10,18,16,51,44,26,,,,,1.07,0.57,0.91,1*0B
    
    315
    +$GNGSA,A,3,82,73,74,67,81,83,68,,,,,,1.07,0.57,0.91,2*0E
    
    316
    +$GNGSA,A,3,03,05,30,27,15,,,,,,,,1.07,0.57,0.91,3*0B
    
    317
    +$GNGSA,A,3,32,28,30,33,27,,,,,,,,1.07,0.57,0.91,4*05
    
    318
    +$GPGSV,4,1,16,05,01,047,,10,29,224,37,13,22,062,,15,40,094,,1*60
    
    319
    +$GPGSV,4,2,16,16,25,306,28,18,68,358,39,20,63,235,37,21,35,292,,1*62
    
    320
    +$GPGSV,4,3,16,23,58,225,,25,00,179,,26,33,265,34,27,07,316,,1*61
    
    321
    +$GPGSV,4,4,16,29,46,133,43,44,45,171,45,46,45,191,43,51,43,156,43,1*60
    
    322
    +$GLGSV,3,1,10,66,08,027,,67,55,052,40,68,56,168,45,69,09,194,18,1*74
    
    323
    +$GLGSV,3,2,10,73,13,282,24,74,10,318,10,81,09,110,14,82,51,077,40,1*76
    
    324
    +$GLGSV,3,3,10,83,52,346,26,84,05,307,,1*7D
    
    325
    +$GAGSV,3,1,10,03,44,149,41,05,42,071,40,08,08,190,,09,06,034,,7*7B
    
    326
    +$GAGSV,3,2,10,13,11,292,,15,56,322,38,21,10,318,,27,24,268,22,7*70
    
    327
    +$GAGSV,3,3,10,30,14,215,19,36,08,098,,7*76
    
    328
    +$GBGSV,2,1,07,04,01,262,,07,03,328,,27,78,059,44,28,29,115,35,1*78
    
    329
    +$GBGSV,2,2,07,30,38,312,36,32,46,196,43,33,19,043,27,1*4C
    
    330
    +$GNGLL,3806.62976,N,12237.61407,W,223758.00,A,D*69
    
    331
    +$GNGST,223758.00,837,2.5,2.4,144,0.98,0.97,3.0*40
    
    332
    +$GNZDA,223758.00,11,07,2020,00,00*76
    
    333
    +$GNGBS,223758.00,1.0,1.0,3.0,,,,,,*55
    
    334
    +$GNRMC,223759.00,A,3806.62977,N,12237.61413,W,0.048,,110720,,,D,V*06
    
    335
    +$GNVTG,,T,,M,0.048,N,0.089,K,D*35
    
    336
    +$GNGGA,223759.00,3806.62977,N,12237.61413,W,2,12,0.57,82.0,M,-29.5,M,,0000*47
    
    337
    +$GNGSA,A,3,29,20,10,18,16,51,44,26,,,,,1.07,0.57,0.91,1*0B
    
    338
    +$GNGSA,A,3,82,73,74,67,81,83,68,,,,,,1.07,0.57,0.91,2*0E
    
    339
    +$GNGSA,A,3,03,05,30,27,15,,,,,,,,1.07,0.57,0.91,3*0B
    
    340
    +$GNGSA,A,3,32,28,30,33,27,,,,,,,,1.07,0.57,0.91,4*05
    
    341
    +$GPGSV,4,1,16,05,01,047,,10,29,224,36,13,22,062,,15,40,094,,1*61
    
    342
    +$GPGSV,4,2,16,16,25,306,27,18,68,358,39,20,63,235,37,21,35,292,,1*6D
    
    343
    +$GPGSV,4,3,16,23,58,225,,25,00,179,,26,33,265,34,27,07,316,,1*61
    
    344
    +$GPGSV,4,4,16,29,46,133,43,44,45,171,45,46,45,191,43,51,43,156,43,1*60
    
    345
    +$GLGSV,3,1,10,66,08,027,,67,55,052,40,68,56,168,45,69,09,194,16,1*7A
    
    346
    +$GLGSV,3,2,10,73,13,281,23,74,10,318,19,81,09,110,15,82,51,077,40,1*7A
    
    347
    +$GLGSV,3,3,10,83,52,346,27,84,05,307,,1*7C
    
    348
    +$GAGSV,3,1,10,03,44,149,41,05,42,071,40,08,08,190,,09,06,034,,7*7B
    
    349
    +$GAGSV,3,2,10,13,11,292,,15,56,322,38,21,10,318,,27,24,268,19,7*78
    
    350
    +$GAGSV,3,3,10,30,14,215,20,36,08,098,,7*7C
    
    351
    +$GBGSV,2,1,07,04,01,262,,07,03,328,,27,78,059,44,28,29,115,34,1*79
    
    352
    +$GBGSV,2,2,07,30,38,312,37,32,46,196,43,33,19,043,28,1*42
    
    353
    +$GNGLL,3806.62977,N,12237.61413,W,223759.00,A,D*6C
    
    354
    +$GNGST,223759.00,851,2.5,2.4,143,0.98,0.97,3.0*46
    
    355
    +$GNZDA,223759.00,11,07,2020,00,00*77
    
    356
    +$GNGBS,223759.00,1.0,1.0,3.0,,,,,,*54
    
    357
    +$GNRMC,223800.00,A,3806.62980,N,12237.61420,W,0.058,,110720,,,D,V*0C
    
    358
    +$GNVTG,,T,,M,0.058,N,0.107,K,D*33
    
    359
    +$GNGGA,223800.00,3806.62980,N,12237.61420,W,2,12,0.57,81.9,M,-29.5,M,,0000*46
    
    360
    +$GNGSA,A,3,29,20,10,18,16,51,44,26,,,,,1.07,0.57,0.91,1*0B
    
    361
    +$GNGSA,A,3,82,73,74,67,81,83,68,,,,,,1.07,0.57,0.91,2*0E
    
    362
    +$GNGSA,A,3,03,05,30,27,15,,,,,,,,1.07,0.57,0.91,3*0B
    
    363
    +$GNGSA,A,3,32,28,30,33,27,,,,,,,,1.07,0.57,0.91,4*05
    
    364
    +$GPGSV,4,1,16,05,01,047,,10,29,224,37,13,22,062,,15,40,094,,1*60
    
    365
    +$GPGSV,4,2,16,16,25,306,28,18,68,358,39,20,63,235,37,21,35,292,,1*62
    
    366
    +$GPGSV,4,3,16,23,58,225,,25,00,179,,26,33,265,35,27,07,316,,1*60
    
    367
    +$GPGSV,4,4,16,29,46,133,44,44,45,171,45,46,45,191,43,51,43,156,43,1*67
    
    368
    +$GLGSV,3,1,10,66,08,027,,67,55,052,40,68,56,168,45,69,09,194,17,1*7B
    
    369
    +$GLGSV,3,2,10,73,13,281,22,74,10,317,18,81,09,110,19,82,51,077,40,1*79
    
    370
    +$GLGSV,3,3,10,83,52,346,27,84,05,307,,1*7C
    
    371
    +$GAGSV,3,1,10,03,44,149,41,05,42,071,39,08,08,190,,09,06,034,,7*75
    
    372
    +$GAGSV,3,2,10,13,11,292,,15,56,322,38,21,10,318,,27,24,268,17,7*76
    
    373
    +$GAGSV,3,3,10,30,14,215,19,36,08,098,,7*76
    
    374
    +$GBGSV,2,1,07,04,01,262,,07,03,328,,27,78,059,44,28,29,115,35,1*78
    
    375
    +$GBGSV,2,2,07,30,38,312,36,32,46,196,43,33,19,043,29,1*42
    
    376
    +$GNGLL,3806.62980,N,12237.61420,W,223800.00,A,D*67
    
    377
    +$GNGST,223800.00,851,2.5,2.4,144,0.98,0.97,3.0*42
    
    378
    +$GNZDA,223800.00,11,07,2020,00,00*74
    
    379
    +$GNGBS,223800.00,1.0,1.0,3.0,,,,,,*57
    
    380
    +$GNRMC,223801.00,A,3806.62981,N,12237.61427,W,0.028,,110720,,,D,V*0C
    
    381
    +$GNVTG,,T,,M,0.028,N,0.052,K,D*35
    
    382
    +$GNGGA,223801.00,3806.62981,N,12237.61427,W,2,12,0.60,81.8,M,-29.5,M,,0000*44
    
    383
    +$GNGSA,A,3,29,20,10,18,16,51,44,26,,,,,1.22,0.60,1.07,1*06
    
    384
    +$GNGSA,A,3,82,73,74,67,81,83,68,,,,,,1.22,0.60,1.07,2*03
    
    385
    +$GNGSA,A,3,03,05,30,27,15,,,,,,,,1.22,0.60,1.07,3*06
    
    386
    +$GNGSA,A,3,32,28,30,33,27,,,,,,,,1.22,0.60,1.07,4*08
    
    387
    +$GPGSV,4,1,16,05,01,047,,10,29,224,36,13,22,062,,15,40,094,,1*61
    
    388
    +$GPGSV,4,2,16,16,25,306,27,18,68,358,39,20,63,235,37,21,35,292,,1*6D
    
    389
    +$GPGSV,4,3,16,23,58,225,,25,00,179,,26,33,265,35,27,07,316,,1*60
    
    390
    +$GPGSV,4,4,16,29,46,133,44,44,45,171,45,46,45,191,43,51,43,156,43,1*67
    
    391
    +$GLGSV,3,1,10,66,08,027,,67,55,052,40,68,56,168,45,69,09,194,18,1*74
    
    392
    +$GLGSV,3,2,10,73,13,281,20,74,10,317,13,81,09,110,12,82,51,077,40,1*7B
    
    393
    +$GLGSV,3,3,10,83,52,346,27,84,05,307,,1*7C
    
    394
    +$GAGSV,3,1,10,03,44,149,41,05,42,071,39,08,08,190,,09,06,034,,7*75
    
    395
    +$GAGSV,3,2,10,13,11,292,,15,56,322,38,21,10,318,,27,24,268,12,7*73
    
    396
    +$GAGSV,3,3,10,30,14,215,20,36,08,098,,7*7C
    
    397
    +$GBGSV,2,1,07,04,01,262,,07,03,328,,27,78,059,44,28,29,115,35,1*78
    
    398
    +$GBGSV,2,2,07,30,38,312,37,32,46,196,43,33,19,043,28,1*42
    
    399
    +$GNGLL,3806.62981,N,12237.61427,W,223801.00,A,D*60
    
    400
    +$GNGST,223801.00,855,2.5,2.4,144,0.99,0.97,3.0*46
    
    401
    +$GNZDA,223801.00,11,07,2020,00,00*75
    
    402
    +$GNGBS,223801.00,1.0,1.0,3.0,,,,,,*56
    
    403
    +$GNRMC,223802.00,A,3806.62983,N,12237.61434,W,0.042,,110720,,,D,V*03
    
    404
    +$GNVTG,,T,,M,0.042,N,0.078,K,D*31
    
    405
    +$GNGGA,223802.00,3806.62983,N,12237.61434,W,2,12,0.57,81.7,M,-29.5,M,,0000*4C
    
    406
    +$GNGSA,A,3,29,20,10,18,16,51,44,26,,,,,1.07,0.57,0.91,1*0B
    
    407
    +$GNGSA,A,3,82,73,74,67,81,83,68,,,,,,1.07,0.57,0.91,2*0E
    
    408
    +$GNGSA,A,3,03,05,30,27,15,,,,,,,,1.07,0.57,0.91,3*0B
    
    409
    +$GNGSA,A,3,32,28,30,33,27,,,,,,,,1.07,0.57,0.91,4*05
    
    410
    +$GPGSV,4,1,16,05,01,047,,10,29,224,37,13,22,062,,15,40,094,,1*60
    
    411
    +$GPGSV,4,2,16,16,25,306,25,18,68,358,39,20,63,235,37,21,35,292,,1*6F
    
    412
    +$GPGSV,4,3,16,23,58,225,,25,00,179,,26,33,265,35,27,07,316,,1*60
    
    413
    +$GPGSV,4,4,16,29,46,133,44,44,45,171,45,46,45,191,43,51,43,156,43,1*67
    
    414
    +$GLGSV,3,1,10,66,08,027,,67,55,052,40,68,56,168,44,69,09,194,16,1*7B
    
    415
    +$GLGSV,3,2,10,73,13,281,21,74,10,317,21,81,09,110,12,82,51,077,40,1*7B
    
    416
    +$GLGSV,3,3,10,83,52,346,27,84,05,307,,1*7C
    
    417
    +$GAGSV,3,1,10,03,44,149,41,05,42,071,39,08,08,190,,09,06,034,,7*75
    
    418
    +$GAGSV,3,2,10,13,11,292,,15,56,322,38,21,10,318,,27,24,268,13,7*72
    
    419
    +$GAGSV,3,3,10,30,14,215,20,36,08,098,,7*7C
    
    420
    +$GBGSV,2,1,07,04,01,262,,07,03,328,,27,78,059,44,28,29,115,35,1*78
    
    421
    +$GBGSV,2,2,07,30,38,312,36,32,46,196,43,33,19,043,28,1*43
    
    422
    +$GNGLL,3806.62983,N,12237.61434,W,223802.00,A,D*63
    
    423
    +$GNGST,223802.00,163639,2.5,2.4,145,0.99,0.97,3.0*74
    
    424
    +$GNZDA,223802.00,11,07,2020,00,00*76
    
    425
    +$GNGBS,223802.00,1.0,1.0,3.0,,,,,,*55
    
    426
    +$GNRMC,223803.00,A,3806.62985,N,12237.61440,W,0.033,,110720,,,D,V*01
    
    427
    +$GNVTG,,T,,M,0.033,N,0.061,K,D*3F
    
    428
    +$GNGGA,223803.00,3806.62985,N,12237.61440,W,2,12,0.57,81.7,M,-29.5,M,,0000*48
    
    429
    +$GNGSA,A,3,29,20,10,18,16,51,44,26,,,,,1.07,0.57,0.91,1*0B
    
    430
    +$GNGSA,A,3,82,73,74,67,81,83,68,,,,,,1.07,0.57,0.91,2*0E
    
    431
    +$GNGSA,A,3,03,05,30,27,15,,,,,,,,1.07,0.57,0.91,3*0B
    
    432
    +$GNGSA,A,3,32,28,30,33,27,,,,,,,,1.07,0.57,0.91,4*05
    
    433
    +$GPGSV,4,1,16,05,01,047,,10,29,224,37,13,22,062,,15,40,094,,1*60
    
    434
    +$GPGSV,4,2,16,16,25,306,25,18,68,358,39,20,63,235,37,21,35,292,,1*6F
    
    435
    +$GPGSV,4,3,16,23,58,225,,25,00,179,,26,33,265,34,27,07,316,,1*61
    
    436
    +$GPGSV,4,4,16,29,46,133,44,44,45,171,45,46,45,191,43,51,43,156,43,1*67
    
    437
    +$GLGSV,3,1,10,66,08,027,,67,55,052,40,68,56,168,45,69,09,194,17,1*7B
    
    438
    +$GLGSV,3,2,10,73,13,281,23,74,10,317,18,81,09,110,15,82,51,077,40,1*74
    
    439
    +$GLGSV,3,3,10,83,52,346,28,84,05,307,,1*73
    
    440
    +$GAGSV,3,1,10,03,44,149,40,05,42,071,39,08,08,190,,09,06,034,,7*74
    
    441
    +$GAGSV,3,2,10,13,11,292,,15,56,322,38,21,10,318,,27,24,268,17,7*76
    
    442
    +$GAGSV,3,3,10,30,14,215,22,36,08,098,,7*7E
    
    443
    +$GBGSV,2,1,07,04,01,262,,07,03,328,,27,78,059,44,28,29,115,34,1*79
    
    444
    +$GBGSV,2,2,07,30,38,312,37,32,46,196,43,33,19,043,29,1*43
    
    445
    +$GNGLL,3806.62985,N,12237.61440,W,223803.00,A,D*67
    
    446
    +$GNGST,223803.00,233365,2.5,2.4,145,1.0,0.97,3.0*4E
    
    447
    +$GNZDA,223803.00,11,07,2020,00,00*77
    
    448
    +$GNGBS,223803.00,1.0,1.0,3.0,,,,,,*54
    
    449
    +$GNRMC,223804.00,A,3806.62986,N,12237.61445,W,0.026,,110720,,,D,V*04
    
    450
    +$GNVTG,,T,,M,0.026,N,0.047,K,D*3F
    
    451
    +$GNGGA,223804.00,3806.62986,N,12237.61445,W,2,12,0.60,81.6,M,-29.5,M,,0000*4C
    
    452
    +$GNGSA,A,3,29,20,10,18,16,51,44,26,,,,,1.22,0.60,1.07,1*06
    
    453
    +$GNGSA,A,3,82,73,74,67,81,83,68,,,,,,1.22,0.60,1.07,2*03
    
    454
    +$GNGSA,A,3,03,05,30,27,15,,,,,,,,1.22,0.60,1.07,3*06
    
    455
    +$GNGSA,A,3,32,28,30,33,27,,,,,,,,1.22,0.60,1.07,4*08
    
    456
    +$GPGSV,4,1,16,05,01,047,,10,29,224,37,13,22,062,,15,40,094,,1*60
    
    457
    +$GPGSV,4,2,16,16,25,306,25,18,68,358,39,20,63,235,38,21,35,292,,1*60
    
    458
    +$GPGSV,4,3,16,23,58,225,,25,00,179,,26,33,265,34,27,07,316,,1*61
    
    459
    +$GPGSV,4,4,16,29,46,133,44,44,45,171,45,46,45,191,43,51,43,156,43,1*67
    
    460
    +$GLGSV,3,1,10,66,08,027,,67,55,052,40,68,56,168,45,69,09,194,18,1*74
    
    461
    +$GLGSV,3,2,10,73,13,281,26,74,10,317,17,81,09,110,12,82,51,077,40,1*79
    
    462
    +$GLGSV,3,3,10,83,52,346,27,84,05,307,,1*7C
    
    463
    +$GAGSV,3,1,10,03,44,149,40,05,42,071,39,08,08,190,,09,06,034,,7*74
    
    464
    +$GAGSV,3,2,10,13,11,292,,15,56,322,38,21,10,318,,27,24,268,19,7*78
    
    465
    +$GAGSV,3,3,10,30,14,215,23,36,08,098,,7*7F
    
    466
    +$GBGSV,2,1,07,04,01,262,,07,03,328,,27,78,059,44,28,29,115,34,1*79
    
    467
    +$GBGSV,2,2,07,30,38,312,37,32,46,196,43,33,19,043,29,1*43
    
    468
    +$GNGLL,3806.62986,N,12237.61445,W,223804.00,A,D*66
    
    469
    +$GNGST,223804.00,855,2.5,2.4,146,1.0,0.97,3.0*70
    
    470
    +$GNZDA,223804.00,11,07,2020,00,00*70
    
    471
    +$GNGBS,223804.00,1.0,1.0,3.0,,,,,,*53
    
    472
    +$GNRMC,223805.00,A,3806.62989,N,12237.61449,W,0.028,,110720,,,D,V*08
    
    473
    +$GNVTG,,T,,M,0.028,N,0.051,K,D*36
    
    474
    +$GNGGA,223805.00,3806.62989,N,12237.61449,W,2,12,0.57,81.6,M,-29.5,M,,0000*4A
    
    475
    +$GNGSA,A,3,29,20,10,18,16,51,44,26,,,,,1.07,0.57,0.91,1*0B
    
    476
    +$GNGSA,A,3,82,73,74,67,81,83,68,,,,,,1.07,0.57,0.91,2*0E
    
    477
    +$GNGSA,A,3,03,05,30,27,15,,,,,,,,1.07,0.57,0.91,3*0B
    
    478
    +$GNGSA,A,3,32,28,30,33,27,,,,,,,,1.07,0.57,0.91,4*05
    
    479
    +$GPGSV,4,1,16,05,01,047,,10,29,224,36,13,22,062,,15,40,094,,1*61
    
    480
    +$GPGSV,4,2,16,16,25,306,26,18,68,358,39,20,63,235,38,21,35,292,,1*63
    
    481
    +$GPGSV,4,3,16,23,58,225,,25,00,179,,26,33,265,34,27,07,316,,1*61
    
    482
    +$GPGSV,4,4,16,29,46,133,44,44,45,171,45,46,45,191,43,51,43,156,43,1*67
    
    483
    +$GLGSV,3,1,10,66,08,027,,67,55,052,41,68,56,168,45,69,09,194,18,1*75
    
    484
    +$GLGSV,3,2,10,73,13,281,26,74,10,317,17,81,09,110,15,82,51,077,40,1*7E
    
    485
    +$GLGSV,3,3,10,83,52,346,28,84,05,307,,1*73
    
    486
    +$GAGSV,3,1,10,03,44,149,40,05,42,071,40,08,08,190,21,09,06,034,,7*79
    
    487
    +$GAGSV,3,2,10,13,11,292,,15,56,322,38,21,10,318,,27,24,268,21,7*73
    
    488
    +$GAGSV,3,3,10,30,14,215,24,36,08,098,,7*78
    
    489
    +$GBGSV,2,1,07,04,01,262,,07,03,328,,27,78,059,44,28,29,115,34,1*79
    
    490
    +$GBGSV,2,2,07,30,38,312,36,32,46,196,43,33,19,043,30,1*4A
    
    491
    +$GNGLL,3806.62989,N,12237.61449,W,223805.00,A,D*64
    
    492
    +$GNGST,223805.00,151766,2.5,2.3,144,1.0,0.97,3.0*4E
    
    493
    +$GNZDA,223805.00,11,07,2020,00,00*71
    
    494
    +$GNGBS,223805.00,1.0,1.0,3.0,,,,,,*52
    
    495
    +$GNRMC,223806.00,A,3806.62990,N,12237.61455,W,0.014,,110720,,,D,V*01
    
    496
    +$GNVTG,,T,,M,0.014,N,0.025,K,D*3A
    
    497
    +$GNGGA,223806.00,3806.62990,N,12237.61455,W,2,12,0.59,81.5,M,-29.5,M,,0000*41
    
    498
    +$GNGSA,A,3,29,20,10,18,51,44,26,,,,,,1.09,0.59,0.92,1*0F
    
    499
    +$GNGSA,A,3,82,73,74,67,81,83,68,,,,,,1.09,0.59,0.92,2*0D
    
    500
    +$GNGSA,A,3,03,05,30,27,15,,,,,,,,1.09,0.59,0.92,3*08
    
    501
    +$GNGSA,A,3,32,28,30,33,27,,,,,,,,1.09,0.59,0.92,4*06
    
    502
    +$GPGSV,4,1,16,05,01,047,,10,29,224,37,13,22,062,,15,40,094,,1*60
    
    503
    +$GPGSV,4,2,16,16,25,306,27,18,68,358,39,20,63,235,38,21,35,292,,1*62
    
    504
    +$GPGSV,4,3,16,23,58,225,,25,00,179,,26,33,265,34,27,07,316,,1*61
    
    505
    +$GPGSV,4,4,16,29,46,133,44,44,45,171,45,46,45,191,43,51,43,156,43,1*67
    
    506
    +$GLGSV,3,1,10,66,08,027,,67,55,052,41,68,56,168,45,69,09,194,20,1*7E
    
    507
    +$GLGSV,3,2,10,73,13,281,27,74,10,317,13,81,09,110,13,82,51,077,40,1*7D
    
    508
    +$GLGSV,3,3,10,83,52,346,28,84,05,307,,1*73
    
    509
    +$GAGSV,3,1,10,03,44,149,40,05,42,071,40,08,08,190,21,09,06,034,,7*79
    
    510
    +$GAGSV,3,2,10,13,11,292,,15,56,322,38,21,10,318,,27,24,268,19,7*78
    
    511
    +$GAGSV,3,3,10,30,14,215,24,36,08,098,,7*78
    
    512
    +$GBGSV,2,1,07,04,01,262,,07,03,328,,27,78,059,44,28,29,115,34,1*79
    
    513
    +$GBGSV,2,2,07,30,38,312,36,32,46,196,43,33,19,043,30,1*4A
    
    514
    +$GNGLL,3806.62990,N,12237.61455,W,223806.00,A,D*62
    
    515
    +$GNGST,223806.00,230042,2.5,2.3,143,1.0,0.97,3.0*4F
    
    516
    +$GNZDA,223806.00,11,07,2020,00,00*72
    
    517
    +$GNGBS,223806.00,1.0,1.0,3.0,,,,,,*51
    
    518
    +$GNRMC,223807.00,A,3806.62992,N,12237.61461,W,0.037,,110720,,,D,V*04
    
    519
    +$GNVTG,,T,,M,0.037,N,0.068,K,D*32
    
    520
    +$GNGGA,223807.00,3806.62992,N,12237.61461,W,2,12,0.60,81.4,M,-29.5,M,,0000*4E
    
    521
    +$GNGSA,A,3,29,20,10,18,16,51,44,26,,,,,1.22,0.60,1.07,1*06
    
    522
    +$GNGSA,A,3,82,73,74,67,81,83,68,,,,,,1.22,0.60,1.07,2*03
    
    523
    +$GNGSA,A,3,03,05,30,27,15,,,,,,,,1.22,0.60,1.07,3*06
    
    524
    +$GNGSA,A,3,32,28,30,33,27,,,,,,,,1.22,0.60,1.07,4*08
    
    525
    +$GPGSV,4,1,16,05,01,047,,10,29,224,37,13,22,062,,15,40,094,,1*60
    
    526
    +$GPGSV,4,2,16,16,25,306,28,18,68,358,39,20,63,235,37,21,35,292,,1*62
    
    527
    +$GPGSV,4,3,16,23,58,225,,25,00,179,,26,33,265,34,27,07,316,,1*61
    
    528
    +$GPGSV,4,4,16,29,46,133,44,44,45,171,45,46,45,191,43,51,43,156,43,1*67
    
    529
    +$GLGSV,3,1,10,66,08,027,,67,55,052,40,68,56,168,45,69,09,194,20,1*7F
    
    530
    +$GLGSV,3,2,10,73,13,281,28,74,10,317,19,81,09,110,13,82,51,077,40,1*78
    
    531
    +$GLGSV,3,3,10,83,52,346,28,84,05,307,,1*73
    
    532
    +$GAGSV,3,1,10,03,44,149,40,05,42,071,40,08,08,190,21,09,06,034,,7*79
    
    533
    +$GAGSV,3,2,10,13,11,292,,15,56,322,38,21,10,318,,27,24,268,22,7*70
    
    534
    +$GAGSV,3,3,10,30,14,215,23,36,08,098,,7*7F
    
    535
    +$GBGSV,2,1,07,04,01,262,,07,03,328,,27,78,059,43,28,29,115,35,1*7F
    
    536
    +$GBGSV,2,2,07,30,38,312,36,32,46,196,43,33,19,043,29,1*42
    
    537
    +$GNGLL,3806.62992,N,12237.61461,W,223807.00,A,D*66
    
    538
    +$GNGST,223807.00,855,2.5,2.3,143,1.0,0.97,3.0*71
    
    539
    +$GNZDA,223807.00,11,07,2020,00,00*73
    
    540
    +$GNGBS,223807.00,1.0,1.0,3.0,,,,,,*50
    
    541
    +$GNRMC,223808.00,A,3806.62993,N,12237.61469,W,0.039,,110720,,,D,V*0C
    
    542
    +$GNVTG,,T,,M,0.039,N,0.072,K,D*37
    
    543
    +$GNGGA,223808.00,3806.62993,N,12237.61469,W,2,12,0.57,81.4,M,-29.5,M,,0000*4C
    
    544
    +$GNGSA,A,3,29,20,10,18,16,51,44,26,,,,,1.07,0.57,0.91,1*0B
    
    545
    +$GNGSA,A,3,82,73,74,67,81,83,68,,,,,,1.07,0.57,0.91,2*0E
    
    546
    +$GNGSA,A,3,03,05,30,27,15,,,,,,,,1.07,0.57,0.91,3*0B
    
    547
    +$GNGSA,A,3,32,28,30,33,27,,,,,,,,1.07,0.57,0.91,4*05
    
    548
    +$GPGSV,4,1,16,05,01,047,,10,29,224,37,13,22,062,,15,40,094,,1*60
    
    549
    +$GPGSV,4,2,16,16,25,306,28,18,68,358,39,20,63,235,38,21,35,292,,1*6D
    
    550
    +$GPGSV,4,3,16,23,58,225,,25,00,179,,26,33,265,35,27,07,316,,1*60
    
    551
    +$GPGSV,4,4,16,29,46,133,44,44,45,171,45,46,45,191,43,51,43,156,43,1*67
    
    552
    +$GLGSV,3,1,10,66,08,027,,67,55,052,40,68,56,168,45,69,09,194,20,1*7F
    
    553
    +$GLGSV,3,2,10,73,13,281,29,74,10,317,15,81,09,110,14,82,50,078,40,1*7C
    
    554
    +$GLGSV,3,3,10,83,52,346,28,84,05,307,,1*73
    
    555
    +$GAGSV,3,1,10,03,44,149,40,05,42,071,40,08,08,190,22,09,06,034,,7*7A
    
    556
    +$GAGSV,3,2,10,13,11,292,,15,56,322,38,21,10,318,,27,24,268,22,7*70
    
    557
    +$GAGSV,3,3,10,30,14,215,23,36,08,098,,7*7F
    
    558
    +$GBGSV,2,1,07,04,01,262,,07,03,328,,27,78,059,44,28,29,115,35,1*78
    
    559
    +$GBGSV,2,2,07,30,38,312,36,32,46,196,43,33,19,043,29,1*42
    
    560
    +$GNGLL,3806.62993,N,12237.61469,W,223808.00,A,D*60
    
    561
    +$GNGST,223808.00,151766,2.5,2.3,144,1.0,0.97,3.0*43
    
    562
    +$GNZDA,223808.00,11,07,2020,00,00*7C
    
    563
    +$GNGBS,223808.00,1.0,1.0,3.0,,,,,,*5F
    
    564
    +$GNRMC,223809.00,A,3806.62995,N,12237.61476,W,0.072,,110720,,,D,V*0A
    
    565
    +$GNVTG,,T,,M,0.072,N,0.133,K,D*3C
    
    566
    +$GNGGA,223809.00,3806.62995,N,12237.61476,W,2,12,0.55,81.3,M,-29.5,M,,0000*40
    
    567
    +$GNGSA,A,3,29,20,10,18,16,51,44,26,,,,,1.01,0.55,0.85,1*0A
    
    568
    +$GNGSA,A,3,82,73,74,67,81,83,68,,,,,,1.01,0.55,0.85,2*0F
    
    569
    +$GNGSA,A,3,03,05,30,27,15,,,,,,,,1.01,0.55,0.85,3*0A
    
    570
    +$GNGSA,A,3,32,28,30,33,27,,,,,,,,1.01,0.55,0.85,4*04
    
    571
    +$GPGSV,4,1,16,05,01,047,,10,29,224,37,13,22,062,,15,40,094,,1*60
    
    572
    +$GPGSV,4,2,16,16,25,306,29,18,68,358,39,20,63,235,38,21,35,292,,1*6C
    
    573
    +$GPGSV,4,3,16,23,58,225,,25,00,179,,26,33,265,34,27,07,316,,1*61
    
    574
    +$GPGSV,4,4,16,29,46,133,44,44,45,171,45,46,45,191,42,51,43,156,43,1*66
    
    575
    +$GLGSV,3,1,10,66,08,027,,67,55,052,41,68,56,168,45,69,09,194,21,1*7F
    
    576
    +$GLGSV,3,2,10,73,13,281,28,74,10,317,15,81,09,110,14,82,50,078,40,1*7D
    
    577
    +$GLGSV,3,3,10,83,53,348,28,84,05,307,,1*7C
    
    578
    +$GAGSV,3,1,10,03,44,149,40,05,42,071,40,08,08,190,22,09,06,034,,7*7A
    
    579
    +$GAGSV,3,2,10,13,11,292,,15,56,322,38,21,10,318,,27,24,268,22,7*70
    
    580
    +$GAGSV,3,3,10,30,14,215,24,36,08,098,,7*78
    
    581
    +$GBGSV,2,1,07,04,01,262,,07,03,328,,27,78,059,44,28,29,115,34,1*79
    
    582
    +$GBGSV,2,2,07,30,38,312,36,32,46,196,43,33,19,043,28,1*43
    
    583
    +$GNGLL,3806.62995,N,12237.61476,W,223809.00,A,D*69
    
    584
    +$GNGST,223809.00,220649,2.5,2.3,144,1.0,0.97,3.0*4B
    
    585
    +$GNZDA,223809.00,11,07,2020,00,00*7D
    
    586
    +$GNGBS,223809.00,1.0,1.0,3.0,,,,,,*5E
    
    587
    +$GNRMC,223810.00,A,3806.62997,N,12237.61483,W,0.023,,110720,,,D,V*0E
    
    588
    +$GNVTG,,T,,M,0.023,N,0.042,K,D*3F
    
    589
    +$GNGGA,223810.00,3806.62997,N,12237.61483,W,2,12,0.61,81.4,M,-29.5,M,,0000*40
    
    590
    +$GNGSA,A,3,29,20,10,18,16,51,44,26,,,,,1.23,0.61,1.07,1*06
    
    591
    +$GNGSA,A,3,82,73,67,81,83,68,,,,,,,1.23,0.61,1.07,2*00
    
    592
    +$GNGSA,A,3,03,05,30,15,,,,,,,,,1.23,0.61,1.07,3*03
    
    593
    +$GNGSA,A,3,32,28,30,33,27,,,,,,,,1.23,0.61,1.07,4*08
    
    594
    +$GPGSV,4,1,16,05,01,047,,10,29,224,38,13,22,062,,15,40,094,,1*6F
    
    595
    +$GPGSV,4,2,16,16,25,306,28,18,68,358,39,20,63,235,38,21,35,292,,1*6D
    
    596
    +$GPGSV,4,3,16,23,58,225,,25,00,179,,26,33,265,33,27,07,316,,1*66
    
    597
    +$GPGSV,4,4,16,29,46,133,44,44,45,171,45,46,45,191,43,51,43,156,43,1*67
    
    598
    +$GLGSV,3,1,10,66,08,027,,67,55,052,40,68,56,168,45,69,09,194,22,1*7D
    
    599
    +$GLGSV,3,2,10,73,13,281,28,74,10,317,10,81,09,110,11,82,50,078,40,1*7D
    
    600
    +$GLGSV,3,3,10,83,53,348,28,84,06,307,,1*7F
    
    601
    +$GAGSV,3,1,10,03,44,149,40,05,42,071,40,08,08,190,21,09,06,034,,7*79
    
    602
    +$GAGSV,3,2,10,13,11,292,,15,56,322,38,21,10,318,,27,24,268,,7*70
    
    603
    +$GAGSV,3,3,10,30,14,215,23,36,08,098,,7*7F
    
    604
    +$GBGSV,2,1,07,04,01,262,,07,03,328,,27,78,059,43,28,29,115,34,1*7E
    
    605
    +$GBGSV,2,2,07,30,38,312,36,32,46,196,43,33,19,043,27,1*4C
    
    606
    +$GNGLL,3806.62997,N,12237.61483,W,223810.00,A,D*69
    
    607
    +$GNGST,223810.00,874,2.5,2.3,145,1.0,0.96,3.0*73
    
    608
    +$GNZDA,223810.00,11,07,2020,00,00*75
    
    609
    +$GNGBS,223810.00,1.0,1.0,3.0,,,,,,*56
    
    610
    +$GNRMC,223811.00,A,3806.62998,N,12237.61488,W,0.053,,110720,,,D,V*0C
    
    611
    +$GNVTG,,T,,M,0.053,N,0.099,K,D*3E
    
    612
    +$GNGGA,223811.00,3806.62998,N,12237.61488,W,2,12,0.58,81.3,M,-29.5,M,,0000*48
    
    613
    +$GNGSA,A,3,29,20,10,18,16,51,44,26,,,,,1.08,0.58,0.92,1*08
    
    614
    +$GNGSA,A,3,82,73,67,81,83,68,,,,,,,1.08,0.58,0.92,2*0E
    
    615
    +$GNGSA,A,3,03,05,30,15,,,,,,,,,1.08,0.58,0.92,3*0D
    
    616
    +$GNGSA,A,3,32,28,30,33,27,,,,,,,,1.08,0.58,0.92,4*06
    
    617
    +$GPGSV,4,1,16,05,01,047,,10,29,224,37,13,22,062,,15,40,094,,1*60
    
    618
    +$GPGSV,4,2,16,16,25,306,27,18,68,358,39,20,63,235,38,21,35,292,,1*62
    
    619
    +$GPGSV,4,3,16,23,58,225,,25,00,179,,26,33,265,32,27,07,316,,1*67
    
    620
    +$GPGSV,4,4,16,29,46,133,44,44,45,171,45,46,45,191,43,51,43,156,43,1*67
    
    621
    +$GLGSV,3,1,10,66,08,027,,67,55,052,39,68,56,168,45,69,09,194,22,1*73
    
    622
    +$GLGSV,3,2,10,73,13,281,28,74,10,317,12,81,09,110,15,82,50,078,40,1*7B
    
    623
    +$GLGSV,3,3,10,83,53,348,28,84,06,307,,1*7F
    
    624
    +$GAGSV,3,1,10,03,44,149,40,05,42,071,40,08,08,190,22,09,06,034,,7*7A
    
    625
    +$GAGSV,3,2,10,13,11,292,,15,56,322,39,21,10,318,,27,24,268,22,7*71
    
    626
    +$GAGSV,3,3,10,30,14,215,24,36,08,098,,7*78
    
    627
    +$GBGSV,2,1,07,04,01,262,,07,03,328,,27,78,059,43,28,29,115,34,1*7E
    
    628
    +$GBGSV,2,2,07,30,38,312,37,32,46,196,43,33,19,043,27,1*4D
    
    629
    +$GNGLL,3806.62998,N,12237.61488,W,223811.00,A,D*6C
    
    630
    +$GNGST,223811.00,155030,2.5,2.3,146,1.0,0.96,3.0*48
    
    631
    +$GNZDA,223811.00,11,07,2020,00,00*74
    
    632
    +$GNGBS,223811.00,1.0,1.0,3.0,,,,,,*57
    
    633
    +$GNRMC,223812.00,A,3806.62999,N,12237.61494,W,0.033,,110720,,,D,V*05
    
    634
    +$GNVTG,,T,,M,0.033,N,0.060,K,D*3E
    
    635
    +$GNGGA,223812.00,3806.62999,N,12237.61494,W,2,12,0.56,81.4,M,-29.5,M,,0000*4E
    
    636
    +$GNGSA,A,3,29,20,10,18,16,51,44,26,,,,,1.02,0.56,0.86,1*09
    
    637
    +$GNGSA,A,3,82,73,74,67,81,83,68,,,,,,1.02,0.56,0.86,2*0C
    
    638
    +$GNGSA,A,3,03,05,30,15,,,,,,,,,1.02,0.56,0.86,3*0C
    
    639
    +$GNGSA,A,3,32,28,30,33,27,,,,,,,,1.02,0.56,0.86,4*07
    
    640
    +$GPGSV,4,1,16,05,01,047,,10,29,224,38,13,22,062,,15,40,094,,1*6F
    
    641
    +$GPGSV,4,2,16,16,25,306,28,18,68,358,39,20,63,235,37,21,35,292,,1*62
    
    642
    +$GPGSV,4,3,16,23,58,225,,25,00,179,,26,33,265,33,27,07,316,,1*66
    
    643
    +$GPGSV,4,4,16,29,46,133,44,44,45,171,45,46,45,191,43,51,43,156,43,1*67
    
    644
    +$GLGSV,3,1,10,66,08,027,,67,55,052,40,68,56,168,45,69,09,194,21,1*7E
    
    645
    +$GLGSV,3,2,10,73,13,281,28,74,10,317,17,81,09,110,11,82,50,078,40,1*7A
    
    646
    +$GLGSV,3,3,10,83,53,348,28,84,06,307,,1*7F
    
    647
    +$GAGSV,3,1,10,03,44,149,39,05,42,071,40,08,08,190,22,09,06,034,,7*74
    
    648
    +$GAGSV,3,2,10,13,11,292,,15,56,322,39,21,10,318,,27,24,268,21,7*72
    
    649
    +$GAGSV,3,3,10,30,14,215,24,36,08,098,,7*78
    
    650
    +$GBGSV,2,1,07,04,01,262,,07,03,328,,27,78,059,43,28,29,115,34,1*7E
    
    651
    +$GBGSV,2,2,07,30,38,312,36,32,46,196,43,33,19,043,27,1*4C
    
    652
    +$GNGLL,3806.62999,N,12237.61494,W,223812.00,A,D*63
    
    653
    +$GNGST,223812.00,225199,2.5,2.3,147,1.0,0.96,3.0*4C
    
    654
    +$GNZDA,223812.00,11,07,2020,00,00*77
    
    655
    +$GNGBS,223812.00,1.0,1.0,3.0,,,,,,*54
    
    656
    +$GNRMC,223813.00,A,3806.63001,N,12237.61500,W,0.035,,110720,,,D,V*07
    
    657
    +$GNVTG,,T,,M,0.035,N,0.065,K,D*3D
    
    658
    +$GNGGA,223813.00,3806.63001,N,12237.61500,W,2,12,0.59,81.3,M,-29.5,M,,0000*42
    
    659
    +$GNGSA,A,3,29,20,10,18,16,51,44,26,,,,,1.16,0.59,1.00,1*0C
    
    660
    +$GNGSA,A,3,82,73,74,67,81,83,68,,,,,,1.16,0.59,1.00,2*09
    
    661
    +$GNGSA,A,3,03,05,30,15,,,,,,,,,1.16,0.59,1.00,3*09
    
    662
    +$GNGSA,A,3,32,28,30,33,27,,,,,,,,1.16,0.59,1.00,4*02
    
    663
    +$GPGSV,4,1,16,05,01,047,,10,29,224,38,13,22,062,,15,40,094,,1*6F
    
    664
    +$GPGSV,4,2,16,16,25,306,28,18,68,358,39,20,63,235,38,21,35,292,,1*6D
    
    665
    +$GPGSV,4,3,16,23,58,225,,25,00,179,,26,33,265,33,27,07,316,,1*66
    
    666
    +$GPGSV,4,4,16,29,46,133,44,44,45,171,45,46,45,191,42,51,43,156,43,1*66
    
    667
    +$GLGSV,3,1,10,66,08,027,,67,55,052,40,68,56,168,45,69,09,194,20,1*7F
    
    668
    +$GLGSV,3,2,10,73,13,281,27,74,10,317,19,81,09,110,12,82,50,078,41,1*79
    
    669
    +$GLGSV,3,3,10,83,53,348,28,84,06,307,,1*7F
    
    670
    +$GAGSV,3,1,10,03,44,149,40,05,42,071,40,08,08,190,21,09,06,034,,7*79
    
    671
    +$GAGSV,3,2,10,13,11,292,,15,56,322,39,21,10,318,,27,24,268,20,7*73
    
    672
    +$GAGSV,3,3,10,30,14,215,26,36,08,098,,7*7A
    
    673
    +$GBGSV,2,1,07,04,01,262,,07,03,328,,27,78,059,43,28,29,115,35,1*7F
    
    674
    +$GBGSV,2,2,07,30,38,312,35,32,46,196,43,33,19,043,29,1*41
    
    675
    +$GNGLL,3806.63001,N,12237.61500,W,223813.00,A,D*67
    
    676
    +$GNGST,223813.00,854,2.5,2.3,147,1.0,0.96,3.0*70
    
    677
    +$GNZDA,223813.00,11,07,2020,00,00*76
    
    678
    +$GNGBS,223813.00,1.0,1.0,3.0,,,,,,*55
    
    679
    +$GNRMC,223814.00,A,3806.63000,N,12237.61506,W,0.027,,110720,,,D,V*04
    
    680
    +$GNVTG,,T,,M,0.027,N,0.051,K,D*39
    
    681
    +$GNGGA,223814.00,3806.63000,N,12237.61506,W,2,12,0.56,81.3,M,-29.5,M,,0000*4D
    
    682
    +$GNGSA,A,3,29,20,10,18,16,51,44,26,,,,,1.02,0.56,0.86,1*09
    
    683
    +$GNGSA,A,3,82,73,74,67,81,83,68,,,,,,1.02,0.56,0.86,2*0C
    
    684
    +$GNGSA,A,3,03,05,30,27,15,,,,,,,,1.02,0.56,0.86,3*09
    
    685
    +$GNGSA,A,3,32,28,30,33,27,,,,,,,,1.02,0.56,0.86,4*07
    
    686
    +$GPGSV,4,1,16,05,01,047,,10,29,224,37,13,22,062,,15,40,094,,1*60
    
    687
    +$GPGSV,4,2,16,16,25,306,27,18,68,358,40,20,63,235,38,21,35,292,,1*6C
    
    688
    +$GPGSV,4,3,16,23,58,225,,25,00,179,,26,33,265,34,27,07,316,,1*61
    
    689
    +$GPGSV,4,4,16,29,46,133,44,44,45,171,45,46,45,191,42,51,43,156,44,1*61
    
    690
    +$GLGSV,3,1,10,66,08,027,,67,55,052,40,68,56,168,44,69,09,194,21,1*7F
    
    691
    +$GLGSV,3,2,10,73,13,281,27,74,10,317,19,81,09,110,15,82,50,078,40,1*7F
    
    692
    +$GLGSV,3,3,10,83,53,348,28,84,06,307,,1*7F
    
    693
    +$GAGSV,3,1,10,03,44,149,40,05,42,071,40,08,08,190,21,09,06,034,,7*79
    
    694
    +$GAGSV,3,2,10,13,11,292,,15,56,322,39,21,10,318,,27,24,268,21,7*72
    
    695
    +$GAGSV,3,3,10,30,14,215,25,36,08,098,,7*79
    
    696
    +$GBGSV,2,1,07,04,01,262,,07,03,328,,27,78,059,43,28,29,115,35,1*7F
    
    697
    +$GBGSV,2,2,07,30,38,312,37,32,46,196,43,33,19,043,29,1*43
    
    698
    +$GNGLL,3806.63000,N,12237.61506,W,223814.00,A,D*67
    
    699
    +$GNGST,223814.00,151766,2.5,2.3,148,1.0,0.96,3.0*43
    
    700
    +$GNZDA,223814.00,11,07,2020,00,00*71
    
    701
    +$GNGBS,223814.00,1.0,1.0,3.0,,,,,,*52
    
    702
    +$GNRMC,223815.00,A,3806.63001,N,12237.61510,W,0.056,,110720,,,D,V*05
    
    703
    +$GNVTG,,T,,M,0.056,N,0.104,K,D*3E
    
    704
    +$GNGGA,223815.00,3806.63001,N,12237.61510,W,2,12,0.56,81.3,M,-29.5,M,,0000*4A
    
    705
    +$GNGSA,A,3,29,20,10,18,16,51,44,26,,,,,1.02,0.56,0.86,1*09
    
    706
    +$GNGSA,A,3,82,73,74,67,81,83,68,,,,,,1.02,0.56,0.86,2*0C
    
    707
    +$GNGSA,A,3,03,05,30,27,15,,,,,,,,1.02,0.56,0.86,3*09
    
    708
    +$GNGSA,A,3,32,28,30,33,27,,,,,,,,1.02,0.56,0.86,4*07
    
    709
    +$GPGSV,4,1,16,05,01,047,,10,29,224,37,13,22,062,,15,40,094,,1*60
    
    710
    +$GPGSV,4,2,16,16,25,306,27,18,68,358,40,20,63,235,38,21,35,292,,1*6C
    
    711
    +$GPGSV,4,3,16,23,58,225,,25,00,179,,26,33,265,35,27,07,316,,1*60
    
    712
    +$GPGSV,4,4,16,29,46,133,44,44,45,171,45,46,45,191,42,51,43,156,44,1*61
    
    713
    +$GLGSV,3,1,10,66,08,027,,67,55,052,40,68,56,168,45,69,09,194,22,1*7D
    
    714
    +$GLGSV,3,2,10,73,13,281,26,74,10,317,19,81,09,110,13,82,50,078,40,1*78
    
    715
    +$GLGSV,3,3,10,83,53,348,28,84,06,307,,1*7F
    
    716
    +$GAGSV,3,1,10,03,44,149,39,05,42,071,40,08,08,190,20,09,06,034,,7*76
    
    717
    +$GAGSV,3,2,10,13,11,292,,15,56,322,39,21,10,318,,27,24,268,20,7*73
    
    718
    +$GAGSV,3,3,10,30,14,215,24,36,08,098,,7*78
    
    719
    +$GBGSV,2,1,07,04,01,262,,07,03,328,,27,78,059,43,28,29,115,35,1*7F
    
    720
    +$GBGSV,2,2,07,30,38,312,36,32,46,196,43,33,19,043,29,1*42
    
    721
    +$GNGLL,3806.63001,N,12237.61510,W,223815.00,A,D*60
    
    722
    +$GNGST,223815.00,225199,2.5,2.3,148,1.0,0.96,3.0*44
    
    723
    +$GNZDA,223815.00,11,07,2020,00,00*70
    
    724
    +$GNGBS,223815.00,1.0,1.0,3.0,,,,,,*53
    
    725
    +$GNRMC,223816.00,A,3806.63003,N,12237.61514,W,0.047,,110720,,,D,V*00
    
    726
    +$GNVTG,,T,,M,0.047,N,0.088,K,D*3B
    
    727
    +$GNGGA,223816.00,3806.63003,N,12237.61514,W,2,12,0.56,81.3,M,-29.5,M,,0000*4F
    
    728
    +$GNGSA,A,3,29,20,10,18,16,51,44,26,,,,,1.02,0.56,0.86,1*09
    
    729
    +$GNGSA,A,3,82,73,74,67,81,83,68,,,,,,1.02,0.56,0.86,2*0C
    
    730
    +$GNGSA,A,3,03,05,30,27,15,,,,,,,,1.02,0.56,0.86,3*09
    
    731
    +$GNGSA,A,3,32,28,30,33,27,,,,,,,,1.02,0.56,0.86,4*07
    
    732
    +$GPGSV,4,1,16,05,01,047,,10,29,224,37,13,22,062,,15,40,094,,1*60
    
    733
    +$GPGSV,4,2,16,16,25,306,25,18,68,358,39,20,63,235,38,21,35,292,,1*60
    
    734
    +$GPGSV,4,3,16,23,58,225,,25,00,179,,26,33,265,35,27,07,316,,1*60
    
    735
    +$GPGSV,4,4,16,29,46,133,44,44,45,171,45,46,45,191,42,51,43,156,44,1*61
    
    736
    +$GLGSV,3,1,10,66,08,027,,67,55,052,40,68,56,168,45,69,09,194,23,1*7C
    
    737
    +$GLGSV,3,2,10,73,13,281,24,74,10,317,20,81,09,110,16,82,50,078,40,1*75
    
    738
    +$GLGSV,3,3,10,83,53,348,28,84,06,307,,1*7F
    
    739
    +$GAGSV,3,1,10,03,44,149,39,05,42,071,40,08,08,190,21,09,06,034,,7*77
    
    740
    +$GAGSV,3,2,10,13,11,292,,15,56,322,38,21,10,318,,27,24,268,18,7*79
    
    741
    +$GAGSV,3,3,10,30,14,215,24,36,08,098,,7*78
    
    742
    +$GBGSV,2,1,07,04,01,262,,07,03,328,,27,78,059,43,28,29,115,34,1*7E
    
    743
    +$GBGSV,2,2,07,30,38,312,36,32,46,196,43,33,19,043,30,1*4A
    
    744
    +$GNGLL,3806.63003,N,12237.61514,W,223816.00,A,D*65
    
    745
    +$GNGST,223816.00,837,2.5,2.3,148,1.0,0.96,3.0*7F
    
    746
    +$GNZDA,223816.00,11,07,2020,00,00*73
    
    747
    +$GNGBS,223816.00,1.0,1.0,3.0,,,,,,*50
    
    748
    +$GNRMC,223817.00,A,3806.63006,N,12237.61518,W,0.045,,110720,,,D,V*0A
    
    749
    +$GNVTG,,T,,M,0.045,N,0.083,K,D*32
    
    750
    +$GNGGA,223817.00,3806.63006,N,12237.61518,W,2,12,0.57,81.3,M,-29.5,M,,0000*46
    
    751
    +$GNGSA,A,3,29,20,10,18,51,44,26,,,,,,1.04,0.57,0.86,1*09
    
    752
    +$GNGSA,A,3,82,73,74,67,81,83,68,,,,,,1.04,0.57,0.86,2*0B
    
    753
    +$GNGSA,A,3,03,05,30,27,15,,,,,,,,1.04,0.57,0.86,3*0E
    
    754
    +$GNGSA,A,3,32,28,30,33,27,,,,,,,,1.04,0.57,0.86,4*00
    
    755
    +$GPGSV,4,1,16,05,01,047,,10,29,224,38,13,22,062,,15,40,094,,1*6F
    
    756
    +$GPGSV,4,2,16,16,25,306,,18,68,358,40,20,63,235,38,21,35,292,,1*69
    
    757
    +$GPGSV,4,3,16,23,58,225,,25,00,179,,26,33,265,35,27,07,316,,1*60
    
    758
    +$GPGSV,4,4,16,29,46,133,44,44,45,171,45,46,45,191,42,51,43,156,43,1*66
    
    759
    +$GLGSV,3,1,10,66,08,027,,67,55,052,41,68,56,168,44,69,09,194,22,1*7D
    
    760
    +$GLGSV,3,2,10,73,13,281,24,74,10,317,20,81,09,110,13,82,50,078,40,1*70
    
    761
    +$GLGSV,3,3,10,83,53,348,28,84,06,307,,1*7F
    
    762
    +$GAGSV,3,1,10,03,44,149,39,05,42,071,40,08,08,190,22,09,06,034,,7*74
    
    763
    +$GAGSV,3,2,10,13,11,292,,15,56,322,39,21,10,318,,27,24,268,15,7*75
    
    764
    +$GAGSV,3,3,10,30,14,215,24,36,08,098,,7*78
    
    765
    +$GBGSV,2,1,07,04,01,262,,07,03,328,,27,78,059,43,28,29,115,35,1*7F
    
    766
    +$GBGSV,2,2,07,30,38,312,37,32,46,196,43,33,19,043,31,1*4A
    
    767
    +$GNGLL,3806.63006,N,12237.61518,W,223817.00,A,D*6D
    
    768
    +$GNGST,223817.00,155030,2.5,2.3,147,1.0,0.96,3.0*4F
    
    769
    +$GNZDA,223817.00,11,07,2020,00,00*72
    
    770
    +$GNGBS,223817.00,1.0,1.0,3.0,,,,,,*51
    
    771
    +$GNRMC,223818.00,A,3806.63008,N,12237.61523,W,0.011,,110720,,,D,V*02
    
    772
    +$GNVTG,,T,,M,0.011,N,0.021,K,D*3B
    
    773
    +$GNGGA,223818.00,3806.63008,N,12237.61523,W,2,12,0.57,81.4,M,-29.5,M,,0000*48
    
    774
    +$GNGSA,A,3,29,20,10,18,51,44,26,,,,,,1.03,0.57,0.86,1*0E
    
    775
    +$GNGSA,A,3,82,73,74,67,81,83,68,,,,,,1.03,0.57,0.86,2*0C
    
    776
    +$GNGSA,A,3,03,05,30,27,15,,,,,,,,1.03,0.57,0.86,3*09
    
    777
    +$GNGSA,A,3,32,28,30,33,27,,,,,,,,1.03,0.57,0.86,4*07
    
    778
    +$GPGSV,4,1,16,05,01,047,,10,29,224,38,13,22,062,,15,40,094,,1*6F
    
    779
    +$GPGSV,4,2,16,16,25,306,25,18,68,358,40,20,63,235,39,21,35,292,,1*6F
    
    780
    +$GPGSV,4,3,16,23,58,225,,25,00,179,,26,33,265,35,27,07,316,,1*60
    
    781
    +$GPGSV,4,4,16,29,46,133,44,44,45,171,45,46,45,191,42,51,43,156,43,1*66
    
    782
    +$GLGSV,3,1,10,66,08,027,,67,55,052,41,68,56,168,45,69,09,194,20,1*7E
    
    783
    +$GLGSV,3,2,10,73,13,281,25,74,10,317,21,81,09,110,13,82,50,078,40,1*70
    
    784
    +$GLGSV,3,3,10,83,53,348,28,84,06,307,,1*7F
    
    785
    +$GAGSV,3,1,10,03,44,149,39,05,42,071,40,08,08,190,22,09,06,034,,7*74
    
    786
    +$GAGSV,3,2,10,13,11,292,,15,56,322,39,21,10,318,,27,24,268,15,7*75
    
    787
    +$GAGSV,3,3,10,30,14,215,23,36,08,098,,7*7F
    
    788
    +$GBGSV,2,1,07,04,01,262,,07,03,328,,27,78,059,43,28,29,115,35,1*7F
    
    789
    +$GBGSV,2,2,07,30,38,312,37,32,46,196,43,33,19,043,32,1*49
    
    790
    +$GNGLL,3806.63008,N,12237.61523,W,223818.00,A,D*64
    
    791
    +$GNGST,223818.00,230042,2.5,2.3,146,0.99,0.96,3.0*75
    
    792
    +$GNZDA,223818.00,11,07,2020,00,00*7D
    
    793
    +$GNGBS,223818.00,1.0,1.0,3.0,,,,,,*5E
    
    794
    +$GNRMC,223819.00,A,3806.63011,N,12237.61527,W,0.036,,110720,,,D,V*0A
    
    795
    +$GNVTG,,T,,M,0.036,N,0.067,K,D*3C
    
    796
    +$GNGGA,223819.00,3806.63011,N,12237.61527,W,2,12,0.57,81.5,M,-29.5,M,,0000*44
    
    797
    +$GNGSA,A,3,29,20,10,18,51,44,26,,,,,,1.03,0.57,0.86,1*0E
    
    798
    +$GNGSA,A,3,82,73,74,67,81,83,68,,,,,,1.03,0.57,0.86,2*0C
    
    799
    +$GNGSA,A,3,03,05,30,27,15,,,,,,,,1.03,0.57,0.86,3*09
    
    800
    +$GNGSA,A,3,32,28,30,33,27,,,,,,,,1.03,0.57,0.86,4*07
    
    801
    +$GPGSV,4,1,16,05,01,047,,10,29,224,37,13,22,062,,15,40,094,,1*60
    
    802
    +$GPGSV,4,2,16,16,25,306,24,18,68,358,40,20,63,235,38,21,35,292,,1*6F
    
    803
    +$GPGSV,4,3,16,23,58,225,,25,00,179,,26,33,265,36,27,07,316,,1*63
    
    804
    +$GPGSV,4,4,16,29,46,133,44,44,45,171,45,46,45,191,43,51,43,156,43,1*67
    
    805
    +$GLGSV,3,1,10,66,08,027,,67,55,052,40,68,56,168,44,69,09,194,20,1*7E
    
    806
    +$GLGSV,3,2,10,73,13,281,24,74,10,317,21,81,09,110,13,82,50,078,41,1*70
    
    807
    +$GLGSV,3,3,10,83,53,348,28,84,06,307,,1*7F
    
    808
    +$GAGSV,3,1,10,03,44,149,40,05,42,071,39,08,08,190,22,09,06,034,,7*74
    
    809
    +$GAGSV,3,2,10,13,11,292,,15,56,322,38,21,10,318,,27,24,268,15,7*74
    
    810
    +$GAGSV,3,3,10,30,14,215,24,36,08,098,,7*78
    
    811
    +$GBGSV,2,1,07,04,01,262,,07,03,328,,27,78,059,44,28,29,115,34,1*79
    
    812
    +$GBGSV,2,2,07,30,38,312,37,32,46,196,43,33,19,043,32,1*49
    
    813
    +$GNGLL,3806.63011,N,12237.61527,W,223819.00,A,D*69
    
    814
    +$GNGST,223819.00,855,2.5,2.3,145,0.99,0.95,3.0*4B
    
    815
    +$GNZDA,223819.00,11,07,2020,00,00*7C
    
    816
    +$GNGBS,223819.00,1.0,1.0,3.0,,,,,,*5F
    
    817
    +$GNRMC,223820.00,A,3806.63013,N,12237.61532,W,0.021,,110720,,,D,V*00
    
    818
    +$GNVTG,,T,,M,0.021,N,0.039,K,D*31
    
    819
    +$GNGGA,223820.00,3806.63013,N,12237.61532,W,2,12,0.57,81.5,M,-29.5,M,,0000*48
    
    820
    +$GNGSA,A,3,29,20,10,18,51,44,26,,,,,,1.03,0.57,0.86,1*0E
    
    821
    +$GNGSA,A,3,82,73,74,67,81,83,68,,,,,,1.03,0.57,0.86,2*0C
    
    822
    +$GNGSA,A,3,03,05,30,27,15,,,,,,,,1.03,0.57,0.86,3*09
    
    823
    +$GNGSA,A,3,32,28,30,33,27,,,,,,,,1.03,0.57,0.86,4*07
    
    824
    +$GPGSV,4,1,16,05,00,047,,10,29,224,37,13,22,062,,15,40,094,,1*61
    
    825
    +$GPGSV,4,2,16,16,25,306,22,18,68,358,39,20,63,235,38,21,35,292,,1*67
    
    826
    +$GPGSV,4,3,16,23,58,225,,25,00,179,,26,33,265,35,27,07,316,,1*60
    
    827
    +$GPGSV,4,4,16,29,46,133,44,44,45,171,45,46,45,191,43,51,43,156,43,1*67
    
    828
    +$GLGSV,3,1,10,66,08,027,,67,55,052,40,68,56,168,45,69,09,194,20,1*7F
    
    829
    +$GLGSV,3,2,10,73,13,281,23,74,10,317,19,81,09,110,16,82,50,078,41,1*79
    
    830
    +$GLGSV,3,3,10,83,53,348,29,84,06,307,,1*7E
    
    831
    +$GAGSV,3,1,10,03,44,149,40,05,42,071,39,08,08,190,22,09,06,034,,7*74
    
    832
    +$GAGSV,3,2,10,13,11,292,,15,56,322,39,21,10,318,,27,24,268,18,7*78
    
    833
    +$GAGSV,3,3,10,30,14,215,25,36,08,098,,7*79
    
    834
    +$GBGSV,2,1,07,04,01,262,,07,03,328,,27,78,059,44,28,29,115,35,1*78
    
    835
    +$GBGSV,2,2,07,30,38,312,36,32,46,196,43,33,19,043,31,1*4B
    
    836
    +$GNGLL,3806.63013,N,12237.61532,W,223820.00,A,D*65
    
    837
    +$GNGST,223820.00,155030,2.5,2.3,145,0.99,0.95,3.0*7B
    
    838
    +$GNZDA,223820.00,11,07,2020,00,00*76
    
    839
    +$GNGBS,223820.00,1.0,1.0,3.0,,,,,,*55
    
    840
    +$GNRMC,223821.00,A,3806.63014,N,12237.61537,W,0.041,,110720,,,D,V*05
    
    841
    +$GNVTG,,T,,M,0.041,N,0.075,K,D*3F
    
    842
    +$GNGGA,223821.00,3806.63014,N,12237.61537,W,2,12,0.56,81.6,M,-29.5,M,,0000*49
    
    843
    +$GNGSA,A,3,29,20,10,18,16,51,44,26,,,,,1.02,0.56,0.86,1*09
    
    844
    +$GNGSA,A,3,82,73,74,67,81,83,68,,,,,,1.02,0.56,0.86,2*0C
    
    845
    +$GNGSA,A,3,03,05,30,27,15,,,,,,,,1.02,0.56,0.86,3*09
    
    846
    +$GNGSA,A,3,32,28,30,33,27,,,,,,,,1.02,0.56,0.86,4*07
    
    847
    +$GPGSV,4,1,16,05,00,047,,10,29,224,37,13,22,062,,15,40,094,,1*61
    
    848
    +$GPGSV,4,2,16,16,25,306,21,18,68,358,40,20,63,235,39,21,35,292,,1*6B
    
    849
    +$GPGSV,4,3,16,23,58,225,,25,00,179,,26,33,265,35,27,07,316,,1*60
    
    850
    +$GPGSV,4,4,16,29,46,133,44,44,45,171,45,46,45,191,43,51,43,156,43,1*67
    
    851
    +$GLGSV,3,1,10,66,08,027,,67,55,052,40,68,56,168,45,69,09,194,21,1*7E
    
    852
    +$GLGSV,3,2,10,73,13,281,23,74,10,317,19,81,09,110,17,82,50,078,40,1*79
    
    853
    +$GLGSV,3,3,10,83,53,348,28,84,06,307,,1*7F
    
    854
    +$GAGSV,3,1,10,03,44,149,39,05,42,071,39,08,08,190,22,09,06,034,,7*7A
    
    855
    +$GAGSV,3,2,10,13,11,292,,15,56,322,39,21,10,318,,27,24,268,19,7*79
    
    856
    +$GAGSV,3,3,10,30,14,215,26,36,08,098,,7*7A
    
    857
    +$GBGSV,2,1,07,04,01,262,,07,03,328,,27,78,059,44,28,29,115,34,1*79
    
    858
    +$GBGSV,2,2,07,30,38,312,36,32,46,196,43,33,19,043,31,1*4B
    
    859
    +$GNGLL,3806.63014,N,12237.61537,W,223821.00,A,D*66
    
    860
    +$GNGST,223821.00,225199,2.5,2.3,145,0.99,0.96,3.0*7F
    
    861
    +$GNZDA,223821.00,11,07,2020,00,00*77
    
    862
    +$GNGBS,223821.00,1.0,1.0,3.0,,,,,,*54
    
    863
    +$GNRMC,223822.00,A,3806.63015,N,12237.61543,W,0.015,,110720,,,D,V*05
    
    864
    +$GNVTG,,T,,M,0.015,N,0.028,K,D*36
    
    865
    +$GNGGA,223822.00,3806.63015,N,12237.61543,W,2,12,0.56,81.6,M,-29.5,M,,0000*48
    
    866
    +$GNGSA,A,3,29,20,10,18,16,51,44,26,,,,,1.02,0.56,0.86,1*09
    
    867
    +$GNGSA,A,3,82,73,74,67,81,83,68,,,,,,1.02,0.56,0.86,2*0C
    
    868
    +$GNGSA,A,3,03,05,30,27,15,,,,,,,,1.02,0.56,0.86,3*09
    
    869
    +$GNGSA,A,3,32,28,30,33,27,,,,,,,,1.02,0.56,0.86,4*07
    
    870
    +$GPGSV,4,1,16,05,00,047,,10,29,224,36,13,22,062,,15,40,094,,1*60
    
    871
    +$GPGSV,4,2,16,16,25,306,22,18,68,358,40,20,63,235,39,21,35,292,,1*68
    
    872
    +$GPGSV,4,3,16,23,58,225,,25,00,179,,26,33,265,35,27,07,316,,1*60
    
    873
    +$GPGSV,4,4,16,29,46,133,44,44,45,171,45,46,45,191,43,51,43,156,43,1*67
    
    874
    +$GLGSV,3,1,10,66,08,027,,67,55,052,40,68,56,168,45,69,09,194,21,1*7E
    
    875
    +$GLGSV,3,2,10,73,13,281,23,74,10,317,19,81,09,110,11,82,50,078,40,1*7F
    
    876
    +$GLGSV,3,3,10,83,53,348,28,84,06,307,,1*7F
    
    877
    +$GAGSV,3,1,10,03,44,149,39,05,42,071,39,08,08,190,21,09,06,034,,7*79
    
    878
    +$GAGSV,3,2,10,13,11,292,,15,56,322,38,21,10,318,,27,24,268,20,7*72
    
    879
    +$GAGSV,3,3,10,30,14,215,26,36,08,098,,7*7A
    
    880
    +$GBGSV,2,1,07,04,01,262,,07,03,328,,27,78,059,44,28,29,115,34,1*79
    
    881
    +$GBGSV,2,2,07,30,38,312,35,32,46,196,43,33,19,043,30,1*49
    
    882
    +$GNGLL,3806.63015,N,12237.61543,W,223822.00,A,D*67
    
    883
    +$GNGST,223822.00,837,2.5,2.3,145,0.99,0.96,3.0*44
    
    884
    +$GNZDA,223822.00,11,07,2020,00,00*74
    
    885
    +$GNGBS,223822.00,1.0,1.0,3.0,,,,,,*57
    
    886
    +$GNRMC,223823.00,A,3806.63017,N,12237.61550,W,0.038,,110720,,,D,V*0B
    
    887
    +$GNVTG,,T,,M,0.038,N,0.070,K,D*34
    
    888
    +$GNGGA,223823.00,3806.63017,N,12237.61550,W,2,12,0.57,81.6,M,-29.5,M,,0000*48
    
    889
    +$GNGSA,A,3,29,20,10,18,51,44,26,,,,,,1.03,0.57,0.86,1*0E
    
    890
    +$GNGSA,A,3,82,73,74,67,81,83,68,,,,,,1.03,0.57,0.86,2*0C
    
    891
    +$GNGSA,A,3,03,05,30,27,15,,,,,,,,1.03,0.57,0.86,3*09
    
    892
    +$GNGSA,A,3,32,28,30,33,27,,,,,,,,1.03,0.57,0.86,4*07
    
    893
    +$GPGSV,4,1,16,05,00,047,,10,29,224,37,13,22,062,,15,40,094,,1*61
    
    894
    +$GPGSV,4,2,16,16,25,306,,18,68,358,41,20,63,235,38,21,35,292,,1*68
    
    895
    +$GPGSV,4,3,16,23,58,225,,25,00,179,,26,33,265,35,27,07,316,,1*60
    
    896
    +$GPGSV,4,4,16,29,46,133,44,44,45,171,45,46,45,191,43,51,43,156,43,1*67
    
    897
    +$GLGSV,3,1,10,66,08,027,,67,55,052,39,68,56,168,45,69,09,194,20,1*71
    
    898
    +$GLGSV,3,2,10,73,13,281,24,74,10,317,19,81,09,110,13,82,50,078,40,1*7A
    
    899
    +$GLGSV,3,3,10,83,53,348,29,84,06,307,,1*7E
    
    900
    +$GAGSV,3,1,10,03,44,149,39,05,42,071,39,08,08,190,20,09,06,034,,7*78
    
    901
    +$GAGSV,3,2,10,13,11,292,,15,56,322,38,21,10,318,25,27,24,268,20,7*75
    
    902
    +$GAGSV,3,3,10,30,14,215,26,36,08,098,,7*7A
    
    903
    +$GBGSV,2,1,07,04,01,262,,07,03,328,,27,78,059,44,28,29,115,34,1*79
    
    904
    +$GBGSV,2,2,07,30,38,312,36,32,46,196,43,33,19,043,28,1*43
    
    905
    +$GNGLL,3806.63017,N,12237.61550,W,223823.00,A,D*66
    
    906
    +$GNGST,223823.00,155030,2.5,2.3,145,0.99,0.96,3.0*7B
    
    907
    +$GNZDA,223823.00,11,07,2020,00,00*75
    
    908
    +$GNGBS,223823.00,1.0,1.0,3.0,,,,,,*56
    
    909
    +$GNRMC,223824.00,A,3806.63018,N,12237.61555,W,0.031,,110720,,,D,V*0F
    
    910
    +$GNVTG,,T,,M,0.031,N,0.058,K,D*37
    
    911
    +$GNGGA,223824.00,3806.63018,N,12237.61555,W,2,12,0.57,81.6,M,-29.5,M,,0000*45
    
    912
    +$GNGSA,A,3,29,20,10,18,51,44,26,,,,,,1.03,0.57,0.86,1*0E
    
    913
    +$GNGSA,A,3,82,73,74,67,81,83,68,,,,,,1.03,0.57,0.86,2*0C
    
    914
    +$GNGSA,A,3,03,05,30,27,15,,,,,,,,1.03,0.57,0.86,3*09
    
    915
    +$GNGSA,A,3,32,28,30,33,27,,,,,,,,1.03,0.57,0.86,4*07
    
    916
    +$GPGSV,4,1,16,05,00,047,,10,29,224,37,13,22,062,,15,40,094,,1*61
    
    917
    +$GPGSV,4,2,16,16,25,306,,18,68,358,41,20,63,235,39,21,35,292,,1*69
    
    918
    +$GPGSV,4,3,16,23,58,225,,25,00,179,,26,33,265,35,27,07,316,,1*60
    
    919
    +$GPGSV,4,4,16,29,46,133,43,44,45,171,45,46,45,191,43,51,43,156,44,1*67
    
    920
    +$GLGSV,3,1,10,66,08,027,,67,55,052,41,68,56,168,45,69,09,194,20,1*7E
    
    921
    +$GLGSV,3,2,10,73,13,281,24,74,10,317,18,81,09,110,18,82,50,078,40,1*70
    
    922
    +$GLGSV,3,3,10,83,53,348,28,84,06,307,,1*7F
    
    923
    +$GAGSV,3,1,10,03,44,149,39,05,42,071,40,08,08,190,19,09,06,034,,7*7C
    
    924
    +$GAGSV,3,2,10,13,11,292,,15,56,322,39,21,10,318,25,27,24,268,20,7*74
    
    925
    +$GAGSV,3,3,10,30,14,215,26,36,08,098,,7*7A
    
    926
    +$GBGSV,2,1,07,04,01,262,,07,03,328,,27,78,059,44,28,29,115,34,1*79
    
    927
    +$GBGSV,2,2,07,30,38,312,36,32,46,196,43,33,19,043,29,1*42
    
    928
    +$GNGLL,3806.63018,N,12237.61555,W,223824.00,A,D*6B
    
    929
    +$GNGST,223824.00,230042,2.5,2.3,145,0.99,0.96,3.0*79
    
    930
    +$GNZDA,223824.00,11,07,2020,00,00*72
    
    931
    +$GNGBS,223824.00,1.0,1.0,3.0,,,,,,*51
    
    932
    +$GNRMC,223825.00,A,3806.63017,N,12237.61558,W,0.026,,110720,,,D,V*0A
    
    933
    +$GNVTG,,T,,M,0.026,N,0.047,K,D*3F
    
    934
    +$GNGGA,223825.00,3806.63017,N,12237.61558,W,2,12,0.57,81.5,M,-29.5,M,,0000*45
    
    935
    +$GNGSA,A,3,29,20,10,18,51,44,26,,,,,,1.03,0.57,0.86,1*0E
    
    936
    +$GNGSA,A,3,82,73,74,67,81,83,68,,,,,,1.03,0.57,0.86,2*0C
    
    937
    +$GNGSA,A,3,03,05,30,27,15,,,,,,,,1.03,0.57,0.86,3*09
    
    938
    +$GNGSA,A,3,32,28,30,33,27,,,,,,,,1.03,0.57,0.86,4*07
    
    939
    +$GPGSV,4,1,16,05,00,047,,10,30,225,36,13,22,062,,15,40,094,,1*69
    
    940
    +$GPGSV,4,2,16,16,25,306,,18,68,358,40,20,63,235,39,21,35,292,,1*68
    
    941
    +$GPGSV,4,3,16,23,58,225,,25,00,179,,26,33,265,35,27,07,316,,1*60
    
    942
    +$GPGSV,4,4,16,29,46,133,43,44,45,171,45,46,45,191,43,51,43,156,44,1*67
    
    943
    +$GLGSV,3,1,10,66,08,027,,67,55,052,41,68,56,168,45,69,09,194,20,1*7E
    
    944
    +$GLGSV,3,2,10,73,13,281,25,74,10,317,17,81,09,110,14,82,50,078,40,1*72
    
    945
    +$GLGSV,3,3,10,83,53,348,28,84,06,307,,1*7F
    
    946
    +$GAGSV,3,1,10,03,44,149,39,05,42,071,40,08,08,190,19,09,06,034,,7*7C
    
    947
    +$GAGSV,3,2,10,13,11,292,,15,56,322,39,21,10,318,25,27,24,268,19,7*7E
    
    948
    +$GAGSV,3,3,10,30,14,215,26,36,08,098,,7*7A
    
    949
    +$GBGSV,2,1,07,04,01,262,,07,03,328,,27,78,059,44,28,29,115,34,1*79
    
    950
    +$GBGSV,2,2,07,30,38,312,37,32,46,196,44,33,19,043,29,1*44
    
    951
    +$GNGLL,3806.63017,N,12237.61558,W,223825.00,A,D*68
    
    952
    +$GNGST,223825.00,855,2.5,2.3,144,0.99,0.96,3.0*46
    
    953
    +$GNZDA,223825.00,11,07,2020,00,00*73
    
    954
    +$GNGBS,223825.00,1.0,1.0,3.0,,,,,,*50
    
    955
    +$GNRMC,223826.00,A,3806.63017,N,12237.61560,W,0.057,,110720,,,D,V*04
    
    956
    +$GNVTG,,T,,M,0.057,N,0.105,K,D*3E
    
    957
    +$GNGGA,223826.00,3806.63017,N,12237.61560,W,2,12,0.57,81.4,M,-29.5,M,,0000*4C
    
    958
    +$GNGSA,A,3,29,20,10,18,51,44,26,,,,,,1.03,0.57,0.86,1*0E
    
    959
    +$GNGSA,A,3,82,73,74,67,81,83,68,,,,,,1.03,0.57,0.86,2*0C
    
    960
    +$GNGSA,A,3,03,05,30,27,15,,,,,,,,1.03,0.57,0.86,3*09
    
    961
    +$GNGSA,A,3,32,28,30,33,27,,,,,,,,1.03,0.57,0.86,4*07
    
    962
    +$GPGSV,4,1,16,05,00,047,,10,30,225,37,13,22,062,,15,40,094,,1*68
    
    963
    +$GPGSV,4,2,16,16,25,306,,18,68,358,40,20,63,235,39,21,35,292,,1*68
    
    964
    +$GPGSV,4,3,16,23,58,225,,25,00,179,,26,33,265,34,27,07,316,,1*61
    
    965
    +$GPGSV,4,4,16,29,46,133,43,44,45,171,45,46,45,191,43,51,43,156,43,1*60
    
    966
    +$GLGSV,3,1,10,66,08,027,,67,55,052,40,68,56,168,45,69,09,194,20,1*7F
    
    967
    +$GLGSV,3,2,10,73,13,281,26,74,10,317,18,81,09,110,13,82,50,078,40,1*79
    
    968
    +$GLGSV,3,3,10,83,53,348,27,84,06,307,,1*70
    
    969
    +$GAGSV,3,1,10,03,44,149,39,05,42,071,40,08,08,190,18,09,06,034,,7*7D
    
    970
    +$GAGSV,3,2,10,13,11,292,,15,56,322,39,21,10,318,25,27,24,267,19,7*71
    
    971
    +$GAGSV,3,3,10,30,14,215,25,36,08,098,,7*79
    
    972
    +$GBGSV,2,1,07,04,01,262,,07,03,328,,27,78,059,44,28,29,115,35,1*78
    
    973
    +$GBGSV,2,2,07,30,38,312,36,32,46,196,43,33,19,043,29,1*42
    
    974
    +$GNGLL,3806.63017,N,12237.61560,W,223826.00,A,D*60
    
    975
    +$GNGST,223826.00,869,2.5,2.3,144,0.99,0.96,3.0*4A
    
    976
    +$GNZDA,223826.00,11,07,2020,00,00*70
    
    977
    +$GNGBS,223826.00,1.0,1.0,3.0,,,,,,*53
    
    978
    +$GNRMC,223827.00,A,3806.63017,N,12237.61561,W,0.054,,110720,,,D,V*07
    
    979
    +$GNVTG,,T,,M,0.054,N,0.100,K,D*38
    
    980
    +$GNGGA,223827.00,3806.63017,N,12237.61561,W,2,12,0.57,81.4,M,-29.5,M,,0000*4C
    
    981
    +$GNGSA,A,3,29,20,10,18,51,44,26,,,,,,1.03,0.57,0.86,1*0E
    
    982
    +$GNGSA,A,3,82,73,74,67,81,83,68,,,,,,1.03,0.57,0.86,2*0C
    
    983
    +$GNGSA,A,3,03,05,30,27,15,,,,,,,,1.03,0.57,0.86,3*09
    
    984
    +$GNGSA,A,3,32,28,30,33,27,,,,,,,,1.03,0.57,0.86,4*07
    
    985
    +$GPGSV,4,1,16,05,00,047,,10,30,225,37,13,22,062,,15,40,094,,1*68
    
    986
    +$GPGSV,4,2,16,16,25,306,,18,68,358,40,20,63,235,39,21,35,292,,1*68
    
    987
    +$GPGSV,4,3,16,23,58,225,,25,00,179,,26,33,265,35,27,07,316,,1*60
    
    988
    +$GPGSV,4,4,16,29,46,133,43,44,45,171,45,46,45,191,44,51,43,156,43,1*67
    
    989
    +$GLGSV,3,1,10,66,08,027,,67,55,052,40,68,56,168,45,69,09,194,20,1*7F
    
    990
    +$GLGSV,3,2,10,73,13,281,28,74,10,317,16,81,09,110,18,82,50,078,40,1*72
    
    991
    +$GLGSV,3,3,10,83,53,348,27,84,06,307,,1*70
    
    992
    +$GAGSV,3,1,10,03,44,149,40,05,42,071,40,08,08,190,19,09,06,034,,7*72
    
    993
    +$GAGSV,3,2,10,13,11,292,,15,56,322,38,21,10,318,25,27,24,267,20,7*7A
    
    994
    +$GAGSV,3,3,10,30,14,215,26,36,08,098,,7*7A
    
    995
    +$GBGSV,2,1,07,04,01,262,,07,03,328,,27,78,059,43,28,29,115,35,1*7F
    
    996
    +$GBGSV,2,2,07,30,38,312,36,32,46,196,44,33,19,043,30,1*4D
    
    997
    +$GNGLL,3806.63017,N,12237.61561,W,223827.00,A,D*60
    
    998
    +$GNGST,223827.00,869,2.5,2.3,144,0.99,0.96,3.0*4B
    
    999
    +$GNZDA,223827.00,11,07,2020,00,00*71
    
    1000
    +$GNGBS,223827.00,1.0,1.0,3.0,,,,,,*52
    
    1001
    +$GNRMC,223828.00,A,3806.63017,N,12237.61560,W,0.034,,110720,,,D,V*0F
    
    1002
    +$GNVTG,,T,,M,0.034,N,0.062,K,D*3B
    
    1003
    +$GNGGA,223828.00,3806.63017,N,12237.61560,W,2,12,0.57,81.3,M,-29.5,M,,0000*45
    
    1004
    +$GNGSA,A,3,29,20,10,18,51,44,26,,,,,,1.03,0.57,0.86,1*0E
    
    1005
    +$GNGSA,A,3,82,73,74,67,81,83,68,,,,,,1.03,0.57,0.86,2*0C
    
    1006
    +$GNGSA,A,3,03,05,30,27,15,,,,,,,,1.03,0.57,0.86,3*09
    
    1007
    +$GNGSA,A,3,32,28,30,33,27,,,,,,,,1.03,0.57,0.86,4*07
    
    1008
    +$GPGSV,4,1,16,05,00,047,,10,30,225,37,13,22,061,,15,40,094,,1*6B
    
    1009
    +$GPGSV,4,2,16,16,25,306,,18,68,358,41,20,63,235,39,21,35,292,,1*69
    
    1010
    +$GPGSV,4,3,16,23,58,225,,25,00,179,,26,33,265,35,27,07,316,,1*60
    
    1011
    +$GPGSV,4,4,16,29,46,133,43,44,45,171,45,46,45,191,43,51,43,156,43,1*60
    
    1012
    +$GLGSV,3,1,10,66,08,027,,67,55,052,40,68,56,168,45,69,09,194,20,1*7F
    
    1013
    +$GLGSV,3,2,10,73,13,281,29,74,10,317,16,81,09,110,15,82,50,078,40,1*7E
    
    1014
    +$GLGSV,3,3,10,83,53,348,27,84,06,307,,1*70
    
    1015
    +$GAGSV,3,1,10,03,44,149,40,05,42,071,39,08,08,190,20,09,06,034,,7*76
    
    1016
    +$GAGSV,3,2,10,13,11,292,,15,56,322,38,21,10,318,25,27,24,267,19,7*70
    
    1017
    +$GAGSV,3,3,10,30,14,215,26,36,08,098,,7*7A
    
    1018
    +$GBGSV,2,1,07,04,01,262,,07,03,328,,27,78,059,43,28,29,115,36,1*7C
    
    1019
    +$GBGSV,2,2,07,30,38,312,36,32,46,196,43,33,19,043,30,1*4A
    
    1020
    +$GNGLL,3806.63017,N,12237.61560,W,223828.00,A,D*6E
    
    1021
    +$GNGST,223828.00,855,2.5,2.3,143,0.99,0.96,3.0*4C
    
    1022
    +$GNZDA,223828.00,11,07,2020,00,00*7E
    
    1023
    +$GNGBS,223828.00,1.0,1.0,3.0,,,,,,*5D
    
    1024
    +$GNRMC,223829.00,A,3806.63018,N,12237.61560,W,0.013,,110720,,,D,V*04
    
    1025
    +$GNVTG,,T,,M,0.013,N,0.023,K,D*3B
    
    1026
    +$GNGGA,223829.00,3806.63018,N,12237.61560,W,2,12,0.57,81.4,M,-29.5,M,,0000*4C
    
    1027
    +$GNGSA,A,3,29,20,10,18,51,44,26,,,,,,1.03,0.57,0.86,1*0E
    
    1028
    +$GNGSA,A,3,82,73,74,67,81,83,68,,,,,,1.03,0.57,0.86,2*0C
    
    1029
    +$GNGSA,A,3,03,05,30,27,15,,,,,,,,1.03,0.57,0.86,3*09
    
    1030
    +$GNGSA,A,3,32,28,30,33,27,,,,,,,,1.03,0.57,0.86,4*07
    
    1031
    +$GPGSV,4,1,16,05,00,047,,10,30,225,37,13,22,061,,15,40,094,,1*6B
    
    1032
    +$GPGSV,4,2,16,16,25,306,,18,68,358,40,20,63,235,39,21,35,292,,1*68
    
    1033
    +$GPGSV,4,3,16,23,58,225,,25,00,179,,26,33,265,35,27,07,316,,1*60
    
    1034
    +$GPGSV,4,4,16,29,46,133,43,44,45,171,45,46,45,191,44,51,43,156,43,1*67
    
    1035
    +$GLGSV,3,1,10,66,08,027,,67,55,052,40,68,56,168,45,69,09,194,20,1*7F
    
    1036
    +$GLGSV,3,2,10,73,13,281,28,74,10,317,15,81,09,110,20,82,50,078,40,1*7A
    
    1037
    +$GLGSV,3,3,10,83,53,348,27,84,06,307,,1*70
    
    1038
    +$GAGSV,3,1,10,03,44,149,39,05,42,071,39,08,08,190,21,09,06,034,,7*79
    
    1039
    +$GAGSV,3,2,10,13,11,292,,15,56,322,39,21,10,318,26,27,24,267,19,7*72
    
    1040
    +$GAGSV,3,3,10,30,14,215,26,36,08,098,,7*7A
    
    1041
    +$GBGSV,2,1,07,04,01,262,,07,03,328,,27,78,059,44,28,29,115,35,1*78
    
    1042
    +$GBGSV,2,2,07,30,38,312,36,32,46,196,44,33,19,043,31,1*4C
    
    1043
    +$GNGLL,3806.63018,N,12237.61560,W,223829.00,A,D*60
    
    1044
    +$GNGST,223829.00,869,2.5,2.3,144,0.99,0.96,3.0*45
    
    1045
    +$GNZDA,223829.00,11,07,2020,00,00*7F
    
    1046
    +$GNGBS,223829.00,1.0,1.0,3.0,,,,,,*5C
    
    1047
    +$GNRMC,223830.00,A,3806.63019,N,12237.61560,W,0.018,,110720,,,D,V*06
    
    1048
    +$GNVTG,,T,,M,0.018,N,0.033,K,D*31
    
    1049
    +$GNGGA,223830.00,3806.63019,N,12237.61560,W,2,12,0.57,81.4,M,-29.5,M,,0000*45
    
    1050
    +$GNGSA,A,3,29,20,10,18,51,44,26,,,,,,1.03,0.57,0.86,1*0E
    
    1051
    +$GNGSA,A,3,82,73,74,67,81,83,68,,,,,,1.03,0.57,0.86,2*0C
    
    1052
    +$GNGSA,A,3,03,05,30,27,15,,,,,,,,1.03,0.57,0.86,3*09
    
    1053
    +$GNGSA,A,3,32,28,30,33,27,,,,,,,,1.03,0.57,0.86,4*07
    
    1054
    +$GPGSV,4,1,16,05,00,047,,10,30,225,36,13,22,061,28,15,40,093,,1*67
    
    1055
    +$GPGSV,4,2,16,16,25,306,,18,68,358,40,20,63,235,39,21,35,292,,1*68
    
    1056
    +$GPGSV,4,3,16,23,58,225,,25,00,179,,26,33,265,35,27,07,316,,1*60
    
    1057
    +$GPGSV,4,4,16,29,46,133,43,44,45,171,45,46,45,191,44,51,43,156,43,1*67
    
    1058
    +$GLGSV,3,1,10,66,08,027,,67,55,052,40,68,56,168,45,69,09,194,19,1*75
    
    1059
    +$GLGSV,3,2,10,73,13,281,28,74,10,317,16,81,09,110,18,82,50,078,40,1*72
    
    1060
    +$GLGSV,3,3,10,83,53,348,27,84,06,307,,1*70
    
    1061
    +$GAGSV,3,1,10,03,44,149,39,05,42,071,40,08,08,190,21,09,06,034,,7*77
    
    1062
    +$GAGSV,3,2,10,13,11,292,,15,56,322,38,21,10,318,27,27,24,267,17,7*7C
    
    1063
    +$GAGSV,3,3,10,30,14,215,27,36,08,098,,7*7B
    
    1064
    +$GBGSV,2,1,07,04,01,262,,07,03,328,,27,78,059,44,28,29,115,35,1*78
    
    1065
    +$GBGSV,2,2,07,30,38,312,36,32,46,196,43,33,19,043,32,1*48
    
    1066
    +$GNGLL,3806.63019,N,12237.61560,W,223830.00,A,D*69
    
    1067
    +$GNGST,223830.00,869,2.5,2.3,143,0.99,0.96,3.0*4A
    
    1068
    +$GNZDA,223830.00,11,07,2020,00,00*77
    
    1069
    +$GNGBS,223830.00,1.0,1.0,3.0,,,,,,*54
    
    1070
    +$GNRMC,223831.00,A,3806.63021,N,12237.61561,W,0.026,,110720,,,D,V*00
    
    1071
    +$GNVTG,,T,,M,0.026,N,0.048,K,D*30
    
    1072
    +$GNGGA,223831.00,3806.63021,N,12237.61561,W,2,12,0.54,81.4,M,-29.5,M,,0000*4D
    
    1073
    +$GNGSA,A,3,29,20,10,18,51,13,44,26,,,,,0.99,0.54,0.83,1*08
    
    1074
    +$GNGSA,A,3,82,73,74,67,81,83,68,,,,,,0.99,0.54,0.83,2*08
    
    1075
    +$GNGSA,A,3,03,05,30,27,15,,,,,,,,0.99,0.54,0.83,3*0D
    
    1076
    +$GNGSA,A,3,32,28,30,33,27,,,,,,,,0.99,0.54,0.83,4*03
    
    1077
    +$GPGSV,4,1,16,05,00,047,,10,30,225,36,13,22,061,27,15,40,093,,1*68
    
    1078
    +$GPGSV,4,2,16,16,25,305,,18,68,358,41,20,63,235,39,21,35,292,,1*6A
    
    1079
    +$GPGSV,4,3,16,23,58,225,,25,00,179,,26,33,265,35,27,07,316,,1*60
    
    1080
    +$GPGSV,4,4,16,29,46,133,43,44,45,171,45,46,45,191,44,51,43,156,43,1*67
    
    1081
    +$GLGSV,3,1,10,66,08,027,,67,55,052,40,68,56,168,45,69,09,194,19,1*75
    
    1082
    +$GLGSV,3,2,10,73,13,281,27,74,10,317,18,81,09,110,13,82,50,078,40,1*78
    
    1083
    +$GLGSV,3,3,10,83,53,348,27,84,06,307,,1*70
    
    1084
    +$GAGSV,3,1,10,03,44,149,39,05,42,071,40,08,08,190,21,09,06,034,,7*77
    
    1085
    +$GAGSV,3,2,10,13,11,292,,15,56,322,38,21,10,318,27,27,24,267,14,7*7F
    
    1086
    +$GAGSV,3,3,10,30,14,215,27,36,08,098,,7*7B
    
    1087
    +$GBGSV,2,1,07,04,01,262,,07,03,328,,27,78,059,43,28,29,115,36,1*7C
    
    1088
    +$GBGSV,2,2,07,30,38,312,36,32,46,196,44,33,19,043,33,1*4E
    
    1089
    +$GNGLL,3806.63021,N,12237.61561,W,223831.00,A,D*62
    
    1090
    +$GNGST,223831.00,820,2.5,2.3,142,0.98,0.96,3.0*46
    
    1091
    +$GNZDA,223831.00,11,07,2020,00,00*76
    
    1092
    +$GNGBS,223831.00,1.0,1.0,3.0,,,,,,*55
    
    1093
    +$GNRMC,223832.00,A,3806.63022,N,12237.61562,W,0.022,,110720,,,D,V*07
    
    1094
    +$GNVTG,,T,,M,0.022,N,0.040,K,D*3C
    
    1095
    +$GNGGA,223832.00,3806.63022,N,12237.61562,W,2,12,0.54,81.4,M,-29.5,M,,0000*4E
    
    1096
    +$GNGSA,A,3,29,20,10,18,51,13,44,26,,,,,0.99,0.54,0.83,1*08
    
    1097
    +$GNGSA,A,3,82,73,74,67,81,83,68,,,,,,0.99,0.54,0.83,2*08
    
    1098
    +$GNGSA,A,3,03,05,30,27,15,,,,,,,,0.99,0.54,0.83,3*0D
    
    1099
    +$GNGSA,A,3,32,28,30,33,27,,,,,,,,0.99,0.54,0.83,4*03
    
    1100
    +$GPGSV,4,1,16,05,00,047,,10,30,225,36,13,22,061,26,15,40,093,,1*69
    
    1101
    +$GPGSV,4,2,16,16,25,305,,18,68,358,40,20,63,235,40,21,35,292,,1*65
    
    1102
    +$GPGSV,4,3,16,23,58,225,,25,00,179,,26,33,265,36,27,07,316,,1*63
    
    1103
    +$GPGSV,4,4,16,29,46,133,43,44,45,171,45,46,45,191,43,51,43,156,43,1*60
    
    1104
    +$GLGSV,3,1,10,66,08,027,,67,55,052,42,68,56,168,44,69,09,194,18,1*77
    
    1105
    +$GLGSV,3,2,10,73,13,281,27,74,10,317,18,81,09,110,16,82,50,078,40,1*7D
    
    1106
    +$GLGSV,3,3,10,83,53,348,27,84,06,307,,1*70
    
    1107
    +$GAGSV,3,1,10,03,44,149,38,05,42,071,40,08,08,190,20,09,06,034,,7*77
    
    1108
    +$GAGSV,3,2,10,13,11,292,,15,56,322,38,21,10,318,28,27,24,267,23,7*74
    
    1109
    +$GAGSV,3,3,10,30,14,215,26,36,08,098,,7*7A
    
    1110
    +$GBGSV,2,1,07,04,01,262,,07,03,328,,27,78,059,43,28,29,115,35,1*7F
    
    1111
    +$GBGSV,2,2,07,30,38,312,36,32,46,196,44,33,19,043,32,1*4F
    
    1112
    +$GNGLL,3806.63022,N,12237.61562,W,223832.00,A,D*61
    
    1113
    +$GNGST,223832.00,160332,2.5,2.3,141,0.98,0.96,3.0*79
    
    1114
    +$GNZDA,223832.00,11,07,2020,00,00*75
    
    1115
    +$GNGBS,223832.00,1.0,1.0,3.0,,,,,,*56
    
    1116
    +$GNRMC,223833.00,A,3806.63024,N,12237.61563,W,0.049,,110720,,,D,V*0C
    
    1117
    +$GNVTG,,T,,M,0.049,N,0.091,K,D*3D
    
    1118
    +$GNGGA,223833.00,3806.63024,N,12237.61563,W,2,12,0.54,81.3,M,-29.5,M,,0000*4F
    
    1119
    +$GNGSA,A,3,29,20,10,18,51,13,44,26,,,,,0.99,0.54,0.83,1*08
    
    1120
    +$GNGSA,A,3,82,73,74,67,81,83,68,,,,,,0.99,0.54,0.83,2*08
    
    1121
    +$GNGSA,A,3,03,05,30,27,15,,,,,,,,0.99,0.54,0.83,3*0D
    
    1122
    +$GNGSA,A,3,32,28,30,33,27,,,,,,,,0.99,0.54,0.83,4*03
    
    1123
    +$GPGSV,4,1,16,05,00,047,,10,30,225,36,13,22,061,26,15,40,093,,1*69
    
    1124
    +$GPGSV,4,2,16,16,25,305,,18,68,000,41,20,63,235,39,21,35,292,,1*64
    
    1125
    +$GPGSV,4,3,16,23,58,225,,25,00,179,,26,33,265,35,27,07,316,,1*60
    
    1126
    +$GPGSV,4,4,16,29,46,133,43,44,45,171,45,46,45,191,43,51,43,156,43,1*60
    
    1127
    +$GLGSV,3,1,10,66,08,027,,67,55,052,41,68,56,168,44,69,09,194,18,1*74
    
    1128
    +$GLGSV,3,2,10,73,13,281,27,74,10,317,17,81,09,110,16,82,50,078,40,1*72
    
    1129
    +$GLGSV,3,3,10,83,53,348,27,84,06,307,,1*70
    
    1130
    +$GAGSV,3,1,10,03,44,149,39,05,42,071,40,08,08,190,20,09,06,034,,7*76
    
    1131
    +$GAGSV,3,2,10,13,11,292,,15,56,322,38,21,10,318,28,27,24,267,20,7*77
    
    1132
    +$GAGSV,3,3,10,30,14,215,27,36,08,098,,7*7B
    
    1133
    +$GBGSV,2,1,07,04,01,262,,07,03,328,,27,78,059,44,28,29,115,36,1*7B
    
    1134
    +$GBGSV,2,2,07,30,38,312,36,32,46,196,44,33,19,043,33,1*4E
    
    1135
    +$GNGLL,3806.63024,N,12237.61563,W,223833.00,A,D*67
    
    1136
    +$GNGST,223833.00,220649,2.5,2.3,140,0.98,0.96,3.0*77
    
    1137
    +$GNZDA,223833.00,11,07,2020,00,00*74
    
    1138
    +$GNGBS,223833.00,1.0,1.0,3.0,,,,,,*57
    
    1139
    +$GNRMC,223834.00,A,3806.63023,N,12237.61565,W,0.012,,110720,,,D,V*04
    
    1140
    +$GNVTG,,T,,M,0.012,N,0.023,K,D*3A
    
    1141
    +$GNGGA,223834.00,3806.63023,N,12237.61565,W,2,12,0.54,81.4,M,-29.5,M,,0000*4E
    
    1142
    +$GNGSA,A,3,29,20,10,18,51,13,44,26,,,,,0.99,0.54,0.83,1*08
    
    1143
    +$GNGSA,A,3,82,73,74,67,81,83,68,,,,,,0.99,0.54,0.83,2*08
    
    1144
    +$GNGSA,A,3,03,05,30,27,15,,,,,,,,0.99,0.54,0.83,3*0D
    
    1145
    +$GNGSA,A,3,32,28,30,33,27,,,,,,,,0.99,0.54,0.83,4*03
    
    1146
    +$GPGSV,4,1,16,05,00,047,,10,30,225,37,13,22,061,26,15,40,093,,1*68
    
    1147
    +$GPGSV,4,2,16,16,25,305,,18,68,000,41,20,63,235,40,21,35,292,,1*6A
    
    1148
    +$GPGSV,4,3,16,23,58,225,,25,00,179,,26,33,265,35,27,07,316,,1*60
    
    1149
    +$GPGSV,4,4,16,29,46,133,43,44,45,171,45,46,45,191,43,51,43,156,43,1*60
    
    1150
    +$GLGSV,3,1,10,66,08,027,,67,55,052,42,68,56,168,45,69,09,194,18,1*76
    
    1151
    +$GLGSV,3,2,10,73,13,281,28,74,10,317,14,81,09,110,15,82,50,078,40,1*7D
    
    1152
    +$GLGSV,3,3,10,83,53,348,26,84,06,307,,1*71
    
    1153
    +$GAGSV,3,1,10,03,44,149,39,05,42,071,40,08,08,190,20,09,06,034,,7*76
    
    1154
    +$GAGSV,3,2,10,13,11,292,,15,56,322,39,21,10,318,27,27,24,267,19,7*73
    
    1155
    +$GAGSV,3,3,10,30,14,215,26,36,08,098,,7*7A
    
    1156
    +$GBGSV,2,1,07,04,01,262,,07,03,328,,27,78,059,43,28,29,115,36,1*7C
    
    1157
    +$GBGSV,2,2,07,30,38,312,36,32,46,196,44,33,19,043,33,1*4E
    
    1158
    +$GNGLL,3806.63023,N,12237.61565,W,223834.00,A,D*61
    
    1159
    +$GNGST,223834.00,820,2.5,2.3,139,0.97,0.96,3.0*40
    
    1160
    +$GNZDA,223834.00,11,07,2020,00,00*73
    
    1161
    +$GNGBS,223834.00,1.0,1.0,3.0,,,,,,*50
    
    1162
    +$GNRMC,223835.00,A,3806.63022,N,12237.61566,W,0.020,,110720,,,D,V*06
    
    1163
    +$GNVTG,,T,,M,0.020,N,0.037,K,D*3E
    
    1164
    +$GNGGA,223835.00,3806.63022,N,12237.61566,W,2,12,0.54,81.4,M,-29.5,M,,0000*4D
    
    1165
    +$GNGSA,A,3,29,20,10,18,51,13,44,26,,,,,0.99,0.54,0.83,1*08
    
    1166
    +$GNGSA,A,3,82,73,74,67,81,83,68,,,,,,0.99,0.54,0.83,2*08
    
    1167
    +$GNGSA,A,3,03,05,30,27,15,,,,,,,,0.99,0.54,0.83,3*0D
    
    1168
    +$GNGSA,A,3,32,28,30,33,27,,,,,,,,0.99,0.54,0.83,4*03
    
    1169
    +$GPGSV,4,1,16,05,00,047,,10,30,225,37,13,22,061,26,15,40,093,,1*68
    
    1170
    +$GPGSV,4,2,16,16,25,305,,18,68,000,41,20,64,237,40,21,35,292,,1*6F
    
    1171
    +$GPGSV,4,3,16,23,58,225,,25,00,179,,26,33,265,34,27,07,316,,1*61
    
    1172
    +$GPGSV,4,4,16,29,46,133,43,44,45,171,45,46,45,191,43,51,43,156,43,1*60
    
    1173
    +$GLGSV,3,1,10,66,08,027,,67,55,052,41,68,56,168,44,69,09,194,19,1*75
    
    1174
    +$GLGSV,3,2,10,73,13,281,29,74,10,317,15,81,09,110,12,82,50,078,40,1*7A
    
    1175
    +$GLGSV,3,3,10,83,53,348,26,84,06,307,,1*71
    
    1176
    +$GAGSV,3,1,10,03,44,149,38,05,42,071,40,08,08,190,20,09,06,034,,7*77
    
    1177
    +$GAGSV,3,2,10,13,11,292,,15,56,322,39,21,10,318,28,27,24,267,21,7*77
    
    1178
    +$GAGSV,3,3,10,30,14,215,26,36,08,098,,7*7A
    
    1179
    +$GBGSV,2,1,07,04,01,262,,07,03,328,,27,78,059,43,28,29,115,35,1*7F
    
    1180
    +$GBGSV,2,2,07,30,38,312,36,32,46,196,44,33,19,043,32,1*4F
    
    1181
    +$GNGLL,3806.63022,N,12237.61566,W,223835.00,A,D*62
    
    1182
    +$GNGST,223835.00,834,2.5,2.2,139,0.97,0.95,3.0*46
    
    1183
    +$GNZDA,223835.00,11,07,2020,00,00*72
    
    1184
    +$GNGBS,223835.00,1.0,1.0,3.0,,,,,,*51
    
    1185
    +$GNRMC,223836.00,A,3806.63020,N,12237.61566,W,0.021,,110720,,,D,V*06
    
    1186
    +$GNVTG,,T,,M,0.021,N,0.039,K,D*31
    
    1187
    +$GNGGA,223836.00,3806.63020,N,12237.61566,W,2,12,0.54,81.4,M,-29.5,M,,0000*4C
    
    1188
    +$GNGSA,A,3,29,20,10,18,51,13,44,26,,,,,0.99,0.54,0.83,1*08
    
    1189
    +$GNGSA,A,3,82,73,74,67,81,83,68,,,,,,0.99,0.54,0.83,2*08
    
    1190
    +$GNGSA,A,3,03,05,30,27,15,,,,,,,,0.99,0.54,0.83,3*0D
    
    1191
    +$GNGSA,A,3,32,28,30,33,27,,,,,,,,0.99,0.54,0.83,4*03
    
    1192
    +$GPGSV,4,1,16,05,00,047,,10,30,225,37,13,22,061,29,15,40,093,,1*67
    
    1193
    +$GPGSV,4,2,16,16,25,305,,18,68,000,41,20,64,237,40,21,36,293,,1*6D
    
    1194
    +$GPGSV,4,3,16,23,58,225,,25,00,179,,26,33,265,34,27,07,316,,1*61
    
    1195
    +$GPGSV,4,4,16,29,46,133,43,44,45,171,45,46,45,191,43,51,43,156,43,1*60
    
    1196
    +$GLGSV,3,1,10,66,08,027,,67,55,052,41,68,56,168,45,69,09,194,19,1*74
    
    1197
    +$GLGSV,3,2,10,73,13,281,29,74,10,317,16,81,09,110,15,82,50,078,40,1*7E
    
    1198
    +$GLGSV,3,3,10,83,53,348,26,84,06,307,,1*71
    
    1199
    +$GAGSV,3,1,10,03,44,149,39,05,42,071,40,08,08,190,20,09,06,034,,7*76
    
    1200
    +$GAGSV,3,2,10,13,11,292,,15,56,322,39,21,10,318,28,27,24,267,21,7*77
    
    1201
    +$GAGSV,3,3,10,30,14,215,26,36,08,098,,7*7A
    
    1202
    +$GBGSV,2,1,07,04,01,262,,07,03,328,,27,78,059,43,28,29,115,35,1*7F
    
    1203
    +$GBGSV,2,2,07,30,38,312,35,32,46,196,44,33,19,043,31,1*4F
    
    1204
    +$GNGLL,3806.63020,N,12237.61566,W,223836.00,A,D*63
    
    1205
    +$GNGST,223836.00,834,2.5,2.2,139,0.97,0.95,2.9*4D
    
    1206
    +$GNZDA,223836.00,11,07,2020,00,00*71
    
    1207
    +$GNGBS,223836.00,1.0,1.0,2.9,,,,,,*5A
    
    1208
    +$GNRMC,223837.00,A,3806.63020,N,12237.61563,W,0.015,,110720,,,D,V*05
    
    1209
    +$GNVTG,,T,,M,0.015,N,0.028,K,D*36
    
    1210
    +$GNGGA,223837.00,3806.63020,N,12237.61563,W,2,12,0.56,81.4,M,-29.5,M,,0000*4A
    
    1211
    +$GNGSA,A,3,29,20,10,18,51,13,44,26,,,,,1.09,0.56,0.94,1*04
    
    1212
    +$GNGSA,A,3,82,73,74,67,81,83,68,,,,,,1.09,0.56,0.94,2*04
    
    1213
    +$GNGSA,A,3,03,05,30,27,15,,,,,,,,1.09,0.56,0.94,3*01
    
    1214
    +$GNGSA,A,3,32,28,30,33,27,,,,,,,,1.09,0.56,0.94,4*0F
    
    1215
    +$GPGSV,4,1,16,05,00,047,,10,30,225,37,13,22,061,28,15,40,093,,1*66
    
    1216
    +$GPGSV,4,2,16,16,25,305,,18,68,000,41,20,64,237,40,21,36,293,,1*6D
    
    1217
    +$GPGSV,4,3,16,23,58,225,,25,00,179,,26,33,265,35,27,07,316,,1*60
    
    1218
    +$GPGSV,4,4,16,29,46,133,43,44,45,171,45,46,45,191,43,51,43,156,43,1*60
    
    1219
    +$GLGSV,3,1,10,66,08,027,,67,55,052,41,68,56,168,45,69,09,194,20,1*7E
    
    1220
    +$GLGSV,3,2,10,73,13,281,28,74,10,317,14,81,09,110,14,82,50,078,41,1*7D
    
    1221
    +$GLGSV,3,3,10,83,53,348,26,84,06,307,,1*71
    
    1222
    +$GAGSV,3,1,10,03,44,149,38,05,42,071,41,08,08,190,21,09,06,034,,7*77
    
    1223
    +$GAGSV,3,2,10,13,11,292,,15,56,322,38,21,10,318,29,27,24,267,21,7*77
    
    1224
    +$GAGSV,3,3,10,30,14,215,27,36,08,098,,7*7B
    
    1225
    +$GBGSV,2,1,07,04,01,262,,07,03,328,,27,78,059,43,28,29,115,34,1*7E
    
    1226
    +$GBGSV,2,2,07,30,38,312,35,32,46,196,44,33,19,043,30,1*4E
    
    1227
    +$GNGLL,3806.63020,N,12237.61563,W,223837.00,A,D*67
    
    1228
    +$GNGST,223837.00,837,2.5,2.2,138,0.96,0.95,2.9*4F
    
    1229
    +$GNZDA,223837.00,11,07,2020,00,00*70
    
    1230
    +$GNGBS,223837.00,1.0,0.9,2.9,,,,,,*53
    
    1231
    +$GNRMC,223838.00,A,3806.63019,N,12237.61561,W,0.040,,110720,,,D,V*02
    
    1232
    +$GNVTG,,T,,M,0.040,N,0.074,K,D*3F
    
    1233
    +$GNGGA,223838.00,3806.63019,N,12237.61561,W,2,12,0.56,81.4,M,-29.5,M,,0000*4D
    
    1234
    +$GNGSA,A,3,29,20,10,18,51,13,44,26,,,,,1.05,0.56,0.88,1*05
    
    1235
    +$GNGSA,A,3,82,73,67,81,83,68,,,,,,,1.05,0.56,0.88,2*06
    
    1236
    +$GNGSA,A,3,03,05,30,27,15,,,,,,,,1.05,0.56,0.88,3*00
    
    1237
    +$GNGSA,A,3,32,28,30,33,27,,,,,,,,1.05,0.56,0.88,4*0E
    
    1238
    +$GPGSV,4,1,16,05,00,047,,10,30,225,38,13,22,061,29,15,40,093,,1*68
    
    1239
    +$GPGSV,4,2,16,16,25,305,,18,68,000,41,20,64,237,39,21,36,293,,1*63
    
    1240
    +$GPGSV,4,3,16,23,58,226,,25,00,179,,26,33,265,35,27,07,316,,1*63
    
    1241
    +$GPGSV,4,4,16,29,46,133,43,44,45,171,45,46,45,191,43,51,43,156,43,1*60
    
    1242
    +$GLGSV,3,1,10,66,08,027,,67,55,052,41,68,56,168,44,69,09,194,18,1*74
    
    1243
    +$GLGSV,3,2,10,73,13,281,28,74,10,317,12,81,09,110,14,82,50,078,41,1*7B
    
    1244
    +$GLGSV,3,3,10,83,53,348,26,84,06,307,,1*71
    
    1245
    +$GAGSV,3,1,10,03,44,149,38,05,42,071,41,08,08,190,21,09,06,034,,7*77
    
    1246
    +$GAGSV,3,2,10,13,11,292,,15,56,322,38,21,10,318,28,27,24,267,21,7*76
    
    1247
    +$GAGSV,3,3,10,30,14,215,27,36,08,098,,7*7B
    
    1248
    +$GBGSV,2,1,07,04,01,262,,07,03,328,,27,78,059,43,28,29,115,35,1*7F
    
    1249
    +$GBGSV,2,2,07,30,38,312,35,32,46,196,44,33,19,043,30,1*4E
    
    1250
    +$GNGLL,3806.63019,N,12237.61561,W,223838.00,A,D*60
    
    1251
    +$GNGST,223838.00,151766,2.5,2.2,138,0.96,0.94,2.9*7F
    
    1252
    +$GNZDA,223838.00,11,07,2020,00,00*7F
    
    1253
    +$GNGBS,223838.00,1.0,0.9,2.9,,,,,,*5C
    
    1254
    +$GNRMC,223839.00,A,3806.63017,N,12237.61558,W,0.006,,110720,,,D,V*05
    
    1255
    +$GNVTG,,T,,M,0.006,N,0.011,K,D*3E
    
    1256
    +$GNGGA,223839.00,3806.63017,N,12237.61558,W,2,12,0.56,81.5,M,-29.5,M,,0000*49
    
    1257
    +$GNGSA,A,3,29,20,10,18,51,13,44,26,,,,,1.05,0.56,0.88,1*05
    
    1258
    +$GNGSA,A,3,82,73,67,81,83,68,,,,,,,1.05,0.56,0.88,2*06
    
    1259
    +$GNGSA,A,3,03,05,30,27,15,,,,,,,,1.05,0.56,0.88,3*00
    
    1260
    +$GNGSA,A,3,32,28,30,33,27,,,,,,,,1.05,0.56,0.88,4*0E
    
    1261
    +$GPGSV,4,1,16,05,00,047,,10,30,225,37,13,22,061,29,15,40,093,,1*67
    
    1262
    +$GPGSV,4,2,16,16,25,305,,18,68,000,41,20,64,237,39,21,36,293,,1*63
    
    1263
    +$GPGSV,4,3,16,23,58,226,,25,00,179,,26,33,265,35,27,07,316,,1*63
    
    1264
    +$GPGSV,4,4,16,29,46,133,42,44,45,171,45,46,45,191,43,51,43,156,43,1*61
    
    1265
    +$GLGSV,3,1,10,66,08,027,,67,55,052,41,68,56,168,45,69,09,194,17,1*7A